<?xml version="1.0" encoding="UTF-8" standalone="no" ?>
<gpx xmlns="http://www.topografix.com/GPX/1/1" xmlns:xsi="http://www.w3.org/2001/XMLSchema-instance" xsi:schemaLocation="http://www.topografix.com/GPX/1/1 http://www.topografix.com/GPX/1/1/gpx.xsd" version="1.1" creator="VisuGPX - https://www.visugpx.com">
  <metadata>
    <name>Lac d'Esparron_15/11/2023</name>
    <desc><![CDATA[Boucle de 11.5 km, dénivelé 330 m]]></desc>
  </metadata>
  <trk>
    <name><![CDATA[Randonnée du 15/11/2023 à 10:45]]></name>
    <trkseg>
      <trkpt lat="43.73489" lon="5.93815">
        <ele>391.9</ele>
        <time>2023-11-15T10:45:48+01:00</time>
      </trkpt>
      <trkpt lat="43.73497" lon="5.93809">
        <ele>393.3</ele>
        <time>2023-11-15T10:46:20+01:00</time>
      </trkpt>
      <trkpt lat="43.73506" lon="5.93807">
        <ele>395.4</ele>
        <time>2023-11-15T10:46:31+01:00</time>
      </trkpt>
      <trkpt lat="43.73516" lon="5.93809">
        <ele>397.9</ele>
        <time>2023-11-15T10:46:41+01:00</time>
      </trkpt>
      <trkpt lat="43.73524" lon="5.93812">
        <ele>399.4</ele>
        <time>2023-11-15T10:46:51+01:00</time>
      </trkpt>
      <trkpt lat="43.73534" lon="5.93812">
        <ele>398.7</ele>
        <time>2023-11-15T10:47:02+01:00</time>
      </trkpt>
      <trkpt lat="43.73542" lon="5.93807">
        <ele>400.3</ele>
        <time>2023-11-15T10:47:13+01:00</time>
      </trkpt>
      <trkpt lat="43.73549" lon="5.93799">
        <ele>403.2</ele>
        <time>2023-11-15T10:47:24+01:00</time>
      </trkpt>
      <trkpt lat="43.73556" lon="5.93792">
        <ele>405.9</ele>
        <time>2023-11-15T10:47:35+01:00</time>
      </trkpt>
      <trkpt lat="43.73564" lon="5.93783">
        <ele>405.2</ele>
        <time>2023-11-15T10:47:47+01:00</time>
      </trkpt>
      <trkpt lat="43.73571" lon="5.93774">
        <ele>403.5</ele>
        <time>2023-11-15T10:47:59+01:00</time>
      </trkpt>
      <trkpt lat="43.73569" lon="5.93762">
        <ele>405.8</ele>
        <time>2023-11-15T10:48:10+01:00</time>
      </trkpt>
      <trkpt lat="43.73568" lon="5.93749">
        <ele>407.6</ele>
        <time>2023-11-15T10:48:21+01:00</time>
      </trkpt>
      <trkpt lat="43.73564" lon="5.93737">
        <ele>407.8</ele>
        <time>2023-11-15T10:48:32+01:00</time>
      </trkpt>
      <trkpt lat="43.7356" lon="5.93726">
        <ele>409</ele>
        <time>2023-11-15T10:48:43+01:00</time>
      </trkpt>
      <trkpt lat="43.73554" lon="5.93716">
        <ele>411.2</ele>
        <time>2023-11-15T10:48:54+01:00</time>
      </trkpt>
      <trkpt lat="43.73546" lon="5.93708">
        <ele>412.2</ele>
        <time>2023-11-15T10:49:05+01:00</time>
      </trkpt>
      <trkpt lat="43.7354" lon="5.93697">
        <ele>413</ele>
        <time>2023-11-15T10:49:15+01:00</time>
      </trkpt>
      <trkpt lat="43.73533" lon="5.93689">
        <ele>415.2</ele>
        <time>2023-11-15T10:49:24+01:00</time>
      </trkpt>
      <trkpt lat="43.73528" lon="5.93678">
        <ele>416.9</ele>
        <time>2023-11-15T10:49:34+01:00</time>
      </trkpt>
      <trkpt lat="43.73523" lon="5.93666">
        <ele>417.3</ele>
        <time>2023-11-15T10:49:44+01:00</time>
      </trkpt>
      <trkpt lat="43.73517" lon="5.93655">
        <ele>417.7</ele>
        <time>2023-11-15T10:49:55+01:00</time>
      </trkpt>
      <trkpt lat="43.73511" lon="5.93645">
        <ele>419</ele>
        <time>2023-11-15T10:50:06+01:00</time>
      </trkpt>
      <trkpt lat="43.73504" lon="5.93635">
        <ele>420.7</ele>
        <time>2023-11-15T10:50:20+01:00</time>
      </trkpt>
      <trkpt lat="43.73497" lon="5.93627">
        <ele>422.1</ele>
        <time>2023-11-15T10:50:32+01:00</time>
      </trkpt>
      <trkpt lat="43.73489" lon="5.93622">
        <ele>423.6</ele>
        <time>2023-11-15T10:50:41+01:00</time>
      </trkpt>
      <trkpt lat="43.7348" lon="5.93615">
        <ele>425.2</ele>
        <time>2023-11-15T10:50:52+01:00</time>
      </trkpt>
      <trkpt lat="43.73472" lon="5.93608">
        <ele>426.6</ele>
        <time>2023-11-15T10:51:03+01:00</time>
      </trkpt>
      <trkpt lat="43.73464" lon="5.93601">
        <ele>427.5</ele>
        <time>2023-11-15T10:51:13+01:00</time>
      </trkpt>
      <trkpt lat="43.73456" lon="5.93593">
        <ele>428.6</ele>
        <time>2023-11-15T10:51:24+01:00</time>
      </trkpt>
      <trkpt lat="43.7345" lon="5.93585">
        <ele>429.7</ele>
        <time>2023-11-15T10:51:39+01:00</time>
      </trkpt>
      <trkpt lat="43.73443" lon="5.93575">
        <ele>431.2</ele>
        <time>2023-11-15T10:51:49+01:00</time>
      </trkpt>
      <trkpt lat="43.73438" lon="5.93563">
        <ele>432.4</ele>
        <time>2023-11-15T10:51:58+01:00</time>
      </trkpt>
      <trkpt lat="43.73435" lon="5.93551">
        <ele>433.5</ele>
        <time>2023-11-15T10:52:08+01:00</time>
      </trkpt>
      <trkpt lat="43.73434" lon="5.93538">
        <ele>434.8</ele>
        <time>2023-11-15T10:52:19+01:00</time>
      </trkpt>
      <trkpt lat="43.73432" lon="5.93524">
        <ele>436.3</ele>
        <time>2023-11-15T10:52:30+01:00</time>
      </trkpt>
      <trkpt lat="43.73432" lon="5.93511">
        <ele>437.2</ele>
        <time>2023-11-15T10:52:41+01:00</time>
      </trkpt>
      <trkpt lat="43.73432" lon="5.93498">
        <ele>437.9</ele>
        <time>2023-11-15T10:52:50+01:00</time>
      </trkpt>
      <trkpt lat="43.7343" lon="5.93485">
        <ele>439.5</ele>
        <time>2023-11-15T10:53:01+01:00</time>
      </trkpt>
      <trkpt lat="43.7343" lon="5.93472">
        <ele>440.1</ele>
        <time>2023-11-15T10:53:12+01:00</time>
      </trkpt>
      <trkpt lat="43.7343" lon="5.9346">
        <ele>442.4</ele>
        <time>2023-11-15T10:53:22+01:00</time>
      </trkpt>
      <trkpt lat="43.7343" lon="5.93447">
        <ele>444.8</ele>
        <time>2023-11-15T10:53:33+01:00</time>
      </trkpt>
      <trkpt lat="43.73433" lon="5.93434">
        <ele>446.3</ele>
        <time>2023-11-15T10:53:41+01:00</time>
      </trkpt>
      <trkpt lat="43.73441" lon="5.93425">
        <ele>446.3</ele>
        <time>2023-11-15T10:53:50+01:00</time>
      </trkpt>
      <trkpt lat="43.73448" lon="5.93417">
        <ele>446.5</ele>
        <time>2023-11-15T10:53:59+01:00</time>
      </trkpt>
      <trkpt lat="43.73456" lon="5.9341">
        <ele>447.3</ele>
        <time>2023-11-15T10:54:10+01:00</time>
      </trkpt>
      <trkpt lat="43.73463" lon="5.93401">
        <ele>448.5</ele>
        <time>2023-11-15T10:54:20+01:00</time>
      </trkpt>
      <trkpt lat="43.73469" lon="5.93391">
        <ele>449.2</ele>
        <time>2023-11-15T10:54:30+01:00</time>
      </trkpt>
      <trkpt lat="43.73474" lon="5.9338">
        <ele>450.2</ele>
        <time>2023-11-15T10:54:41+01:00</time>
      </trkpt>
      <trkpt lat="43.73478" lon="5.93368">
        <ele>451.1</ele>
        <time>2023-11-15T10:54:52+01:00</time>
      </trkpt>
      <trkpt lat="43.73485" lon="5.93357">
        <ele>451.1</ele>
        <time>2023-11-15T10:55:03+01:00</time>
      </trkpt>
      <trkpt lat="43.73489" lon="5.93346">
        <ele>451.4</ele>
        <time>2023-11-15T10:55:14+01:00</time>
      </trkpt>
      <trkpt lat="43.73493" lon="5.93334">
        <ele>451.4</ele>
        <time>2023-11-15T10:55:23+01:00</time>
      </trkpt>
      <trkpt lat="43.73497" lon="5.93322">
        <ele>451.4</ele>
        <time>2023-11-15T10:55:33+01:00</time>
      </trkpt>
      <trkpt lat="43.735" lon="5.93309">
        <ele>451.7</ele>
        <time>2023-11-15T10:55:42+01:00</time>
      </trkpt>
      <trkpt lat="43.73504" lon="5.93297">
        <ele>451.2</ele>
        <time>2023-11-15T10:55:52+01:00</time>
      </trkpt>
      <trkpt lat="43.73506" lon="5.93283">
        <ele>451.9</ele>
        <time>2023-11-15T10:56:01+01:00</time>
      </trkpt>
      <trkpt lat="43.73509" lon="5.93269">
        <ele>453.3</ele>
        <time>2023-11-15T10:56:11+01:00</time>
      </trkpt>
      <trkpt lat="43.73514" lon="5.93259">
        <ele>454.3</ele>
        <time>2023-11-15T10:56:19+01:00</time>
      </trkpt>
      <trkpt lat="43.73523" lon="5.93257">
        <ele>453.7</ele>
        <time>2023-11-15T10:56:27+01:00</time>
      </trkpt>
      <trkpt lat="43.73533" lon="5.93258">
        <ele>453.5</ele>
        <time>2023-11-15T10:56:38+01:00</time>
      </trkpt>
      <trkpt lat="43.73543" lon="5.93259">
        <ele>454.5</ele>
        <time>2023-11-15T10:56:50+01:00</time>
      </trkpt>
      <trkpt lat="43.73552" lon="5.93258">
        <ele>456.3</ele>
        <time>2023-11-15T10:57:00+01:00</time>
      </trkpt>
      <trkpt lat="43.73561" lon="5.93255">
        <ele>457.6</ele>
        <time>2023-11-15T10:57:11+01:00</time>
      </trkpt>
      <trkpt lat="43.73571" lon="5.93252">
        <ele>458.4</ele>
        <time>2023-11-15T10:57:22+01:00</time>
      </trkpt>
      <trkpt lat="43.7358" lon="5.93249">
        <ele>459.2</ele>
        <time>2023-11-15T10:57:34+01:00</time>
      </trkpt>
      <trkpt lat="43.7359" lon="5.93245">
        <ele>459.4</ele>
        <time>2023-11-15T10:57:47+01:00</time>
      </trkpt>
      <trkpt lat="43.73584" lon="5.93234">
        <ele>461.2</ele>
        <time>2023-11-15T10:59:40+01:00</time>
      </trkpt>
      <trkpt lat="43.73579" lon="5.93224">
        <ele>463.2</ele>
        <time>2023-11-15T10:59:53+01:00</time>
      </trkpt>
      <trkpt lat="43.7357" lon="5.93222">
        <ele>464.5</ele>
        <time>2023-11-15T11:00:06+01:00</time>
      </trkpt>
      <trkpt lat="43.73562" lon="5.93214">
        <ele>466.5</ele>
        <time>2023-11-15T11:00:22+01:00</time>
      </trkpt>
      <trkpt lat="43.73559" lon="5.93203">
        <ele>468.8</ele>
        <time>2023-11-15T11:00:37+01:00</time>
      </trkpt>
      <trkpt lat="43.73558" lon="5.9319">
        <ele>471.1</ele>
        <time>2023-11-15T11:00:52+01:00</time>
      </trkpt>
      <trkpt lat="43.73558" lon="5.93177">
        <ele>473</ele>
        <time>2023-11-15T11:01:12+01:00</time>
      </trkpt>
      <trkpt lat="43.73551" lon="5.93168">
        <ele>475.8</ele>
        <time>2023-11-15T11:01:42+01:00</time>
      </trkpt>
      <trkpt lat="43.73542" lon="5.93162">
        <ele>478.5</ele>
        <time>2023-11-15T11:02:03+01:00</time>
      </trkpt>
      <trkpt lat="43.73534" lon="5.93155">
        <ele>481.5</ele>
        <time>2023-11-15T11:02:24+01:00</time>
      </trkpt>
      <trkpt lat="43.7353" lon="5.93143">
        <ele>484.5</ele>
        <time>2023-11-15T11:02:43+01:00</time>
      </trkpt>
      <trkpt lat="43.73521" lon="5.93146">
        <ele>486.4</ele>
        <time>2023-11-15T11:03:03+01:00</time>
      </trkpt>
      <trkpt lat="43.73511" lon="5.93149">
        <ele>487.9</ele>
        <time>2023-11-15T11:03:18+01:00</time>
      </trkpt>
      <trkpt lat="43.73502" lon="5.93151">
        <ele>489.5</ele>
        <time>2023-11-15T11:03:31+01:00</time>
      </trkpt>
      <trkpt lat="43.73494" lon="5.93146">
        <ele>492.3</ele>
        <time>2023-11-15T11:03:49+01:00</time>
      </trkpt>
      <trkpt lat="43.73485" lon="5.93142">
        <ele>495.1</ele>
        <time>2023-11-15T11:04:06+01:00</time>
      </trkpt>
      <trkpt lat="43.73476" lon="5.93142">
        <ele>496.6</ele>
        <time>2023-11-15T11:04:19+01:00</time>
      </trkpt>
      <trkpt lat="43.73468" lon="5.93136">
        <ele>499.3</ele>
        <time>2023-11-15T11:04:37+01:00</time>
      </trkpt>
      <trkpt lat="43.73463" lon="5.93147">
        <ele>497.9</ele>
        <time>2023-11-15T11:04:53+01:00</time>
      </trkpt>
      <trkpt lat="43.73459" lon="5.93158">
        <ele>496.4</ele>
        <time>2023-11-15T11:05:10+01:00</time>
      </trkpt>
      <trkpt lat="43.7345" lon="5.93164">
        <ele>497.8</ele>
        <time>2023-11-15T11:05:20+01:00</time>
      </trkpt>
      <trkpt lat="43.73442" lon="5.9317">
        <ele>498.9</ele>
        <time>2023-11-15T11:05:30+01:00</time>
      </trkpt>
      <trkpt lat="43.73432" lon="5.93171">
        <ele>500.9</ele>
        <time>2023-11-15T11:05:43+01:00</time>
      </trkpt>
      <trkpt lat="43.73423" lon="5.93165">
        <ele>503.9</ele>
        <time>2023-11-15T11:05:58+01:00</time>
      </trkpt>
      <trkpt lat="43.73415" lon="5.93159">
        <ele>506.4</ele>
        <time>2023-11-15T11:06:13+01:00</time>
      </trkpt>
      <trkpt lat="43.73407" lon="5.93154">
        <ele>508.4</ele>
        <time>2023-11-15T11:06:28+01:00</time>
      </trkpt>
      <trkpt lat="43.734" lon="5.93145">
        <ele>510.7</ele>
        <time>2023-11-15T11:06:42+01:00</time>
      </trkpt>
      <trkpt lat="43.73392" lon="5.93138">
        <ele>512.7</ele>
        <time>2023-11-15T11:06:55+01:00</time>
      </trkpt>
      <trkpt lat="43.73384" lon="5.93131">
        <ele>513.4</ele>
        <time>2023-11-15T11:07:09+01:00</time>
      </trkpt>
      <trkpt lat="43.73383" lon="5.93118">
        <ele>514.2</ele>
        <time>2023-11-15T11:14:32+01:00</time>
      </trkpt>
      <trkpt lat="43.73378" lon="5.93108">
        <ele>514.3</ele>
        <time>2023-11-15T11:15:12+01:00</time>
      </trkpt>
      <trkpt lat="43.73378" lon="5.93095">
        <ele>515</ele>
        <time>2023-11-15T11:15:22+01:00</time>
      </trkpt>
      <trkpt lat="43.73376" lon="5.93083">
        <ele>515.2</ele>
        <time>2023-11-15T11:15:34+01:00</time>
      </trkpt>
      <trkpt lat="43.73375" lon="5.9307">
        <ele>516.1</ele>
        <time>2023-11-15T11:15:44+01:00</time>
      </trkpt>
      <trkpt lat="43.7337" lon="5.93058">
        <ele>516.3</ele>
        <time>2023-11-15T11:15:54+01:00</time>
      </trkpt>
      <trkpt lat="43.73365" lon="5.93048">
        <ele>516.4</ele>
        <time>2023-11-15T11:16:04+01:00</time>
      </trkpt>
      <trkpt lat="43.73358" lon="5.93039">
        <ele>516.3</ele>
        <time>2023-11-15T11:16:14+01:00</time>
      </trkpt>
      <trkpt lat="43.7335" lon="5.93031">
        <ele>516.4</ele>
        <time>2023-11-15T11:16:25+01:00</time>
      </trkpt>
      <trkpt lat="43.73343" lon="5.93022">
        <ele>517</ele>
        <time>2023-11-15T11:16:37+01:00</time>
      </trkpt>
      <trkpt lat="43.73335" lon="5.93016">
        <ele>517.3</ele>
        <time>2023-11-15T11:16:50+01:00</time>
      </trkpt>
      <trkpt lat="43.73327" lon="5.93007">
        <ele>518.5</ele>
        <time>2023-11-15T11:17:02+01:00</time>
      </trkpt>
      <trkpt lat="43.7332" lon="5.92999">
        <ele>519.6</ele>
        <time>2023-11-15T11:17:14+01:00</time>
      </trkpt>
      <trkpt lat="43.73314" lon="5.9299">
        <ele>520.3</ele>
        <time>2023-11-15T11:17:27+01:00</time>
      </trkpt>
      <trkpt lat="43.73311" lon="5.92977">
        <ele>521.5</ele>
        <time>2023-11-15T11:17:38+01:00</time>
      </trkpt>
      <trkpt lat="43.73306" lon="5.92966">
        <ele>521.6</ele>
        <time>2023-11-15T11:17:51+01:00</time>
      </trkpt>
      <trkpt lat="43.73299" lon="5.92959">
        <ele>521.5</ele>
        <time>2023-11-15T11:18:06+01:00</time>
      </trkpt>
      <trkpt lat="43.73289" lon="5.92957">
        <ele>522.2</ele>
        <time>2023-11-15T11:18:18+01:00</time>
      </trkpt>
      <trkpt lat="43.7328" lon="5.92952">
        <ele>522.8</ele>
        <time>2023-11-15T11:18:29+01:00</time>
      </trkpt>
      <trkpt lat="43.73272" lon="5.92949">
        <ele>523.8</ele>
        <time>2023-11-15T11:18:39+01:00</time>
      </trkpt>
      <trkpt lat="43.73262" lon="5.92945">
        <ele>525.3</ele>
        <time>2023-11-15T11:18:53+01:00</time>
      </trkpt>
      <trkpt lat="43.73253" lon="5.9294">
        <ele>527.1</ele>
        <time>2023-11-15T11:19:07+01:00</time>
      </trkpt>
      <trkpt lat="43.73248" lon="5.92928">
        <ele>529.1</ele>
        <time>2023-11-15T11:19:19+01:00</time>
      </trkpt>
      <trkpt lat="43.73243" lon="5.92917">
        <ele>531.4</ele>
        <time>2023-11-15T11:19:35+01:00</time>
      </trkpt>
      <trkpt lat="43.73236" lon="5.92911">
        <ele>533.9</ele>
        <time>2023-11-15T11:19:52+01:00</time>
      </trkpt>
      <trkpt lat="43.73227" lon="5.92908">
        <ele>536.5</ele>
        <time>2023-11-15T11:20:12+01:00</time>
      </trkpt>
      <trkpt lat="43.73218" lon="5.92905">
        <ele>538.5</ele>
        <time>2023-11-15T11:20:26+01:00</time>
      </trkpt>
      <trkpt lat="43.73211" lon="5.92897">
        <ele>541</ele>
        <time>2023-11-15T11:20:43+01:00</time>
      </trkpt>
      <trkpt lat="43.73212" lon="5.92884">
        <ele>543.2</ele>
        <time>2023-11-15T11:20:56+01:00</time>
      </trkpt>
      <trkpt lat="43.73212" lon="5.92871">
        <ele>544.8</ele>
        <time>2023-11-15T11:21:11+01:00</time>
      </trkpt>
      <trkpt lat="43.7321" lon="5.92859">
        <ele>546.9</ele>
        <time>2023-11-15T11:21:24+01:00</time>
      </trkpt>
      <trkpt lat="43.7321" lon="5.92846">
        <ele>548</ele>
        <time>2023-11-15T11:21:39+01:00</time>
      </trkpt>
      <trkpt lat="43.73202" lon="5.92839">
        <ele>550.6</ele>
        <time>2023-11-15T11:21:58+01:00</time>
      </trkpt>
      <trkpt lat="43.73193" lon="5.92839">
        <ele>552.4</ele>
        <time>2023-11-15T11:22:15+01:00</time>
      </trkpt>
      <trkpt lat="43.73183" lon="5.92834">
        <ele>553</ele>
        <time>2023-11-15T11:22:29+01:00</time>
      </trkpt>
      <trkpt lat="43.73178" lon="5.92823">
        <ele>553.7</ele>
        <time>2023-11-15T11:22:51+01:00</time>
      </trkpt>
      <trkpt lat="43.73172" lon="5.92814">
        <ele>554.4</ele>
        <time>2023-11-15T11:24:51+01:00</time>
      </trkpt>
      <trkpt lat="43.73163" lon="5.9281">
        <ele>554.2</ele>
        <time>2023-11-15T11:25:04+01:00</time>
      </trkpt>
      <trkpt lat="43.73156" lon="5.92802">
        <ele>553.7</ele>
        <time>2023-11-15T11:25:23+01:00</time>
      </trkpt>
      <trkpt lat="43.73151" lon="5.92791">
        <ele>554</ele>
        <time>2023-11-15T11:25:35+01:00</time>
      </trkpt>
      <trkpt lat="43.73145" lon="5.92781">
        <ele>554.4</ele>
        <time>2023-11-15T11:25:47+01:00</time>
      </trkpt>
      <trkpt lat="43.7314" lon="5.9277">
        <ele>554.7</ele>
        <time>2023-11-15T11:25:58+01:00</time>
      </trkpt>
      <trkpt lat="43.73134" lon="5.9276">
        <ele>554.1</ele>
        <time>2023-11-15T11:26:10+01:00</time>
      </trkpt>
      <trkpt lat="43.73129" lon="5.92749">
        <ele>554.1</ele>
        <time>2023-11-15T11:26:21+01:00</time>
      </trkpt>
      <trkpt lat="43.73123" lon="5.92738">
        <ele>553.6</ele>
        <time>2023-11-15T11:26:32+01:00</time>
      </trkpt>
      <trkpt lat="43.73118" lon="5.92726">
        <ele>553.9</ele>
        <time>2023-11-15T11:26:43+01:00</time>
      </trkpt>
      <trkpt lat="43.73113" lon="5.92715">
        <ele>553.8</ele>
        <time>2023-11-15T11:26:54+01:00</time>
      </trkpt>
      <trkpt lat="43.73106" lon="5.92708">
        <ele>552.9</ele>
        <time>2023-11-15T11:27:04+01:00</time>
      </trkpt>
      <trkpt lat="43.73101" lon="5.92697">
        <ele>552.9</ele>
        <time>2023-11-15T11:27:14+01:00</time>
      </trkpt>
      <trkpt lat="43.73095" lon="5.92688">
        <ele>553.2</ele>
        <time>2023-11-15T11:27:26+01:00</time>
      </trkpt>
      <trkpt lat="43.73087" lon="5.92682">
        <ele>552.9</ele>
        <time>2023-11-15T11:27:35+01:00</time>
      </trkpt>
      <trkpt lat="43.7308" lon="5.92673">
        <ele>553.3</ele>
        <time>2023-11-15T11:27:46+01:00</time>
      </trkpt>
      <trkpt lat="43.73072" lon="5.92665">
        <ele>553.1</ele>
        <time>2023-11-15T11:27:58+01:00</time>
      </trkpt>
      <trkpt lat="43.73066" lon="5.92655">
        <ele>553.1</ele>
        <time>2023-11-15T11:28:09+01:00</time>
      </trkpt>
      <trkpt lat="43.7306" lon="5.92645">
        <ele>553</ele>
        <time>2023-11-15T11:28:22+01:00</time>
      </trkpt>
      <trkpt lat="43.73056" lon="5.92634">
        <ele>553.5</ele>
        <time>2023-11-15T11:28:35+01:00</time>
      </trkpt>
      <trkpt lat="43.73053" lon="5.92622">
        <ele>553.4</ele>
        <time>2023-11-15T11:28:46+01:00</time>
      </trkpt>
      <trkpt lat="43.73049" lon="5.9261">
        <ele>553.1</ele>
        <time>2023-11-15T11:28:57+01:00</time>
      </trkpt>
      <trkpt lat="43.73045" lon="5.92598">
        <ele>552</ele>
        <time>2023-11-15T11:29:19+01:00</time>
      </trkpt>
      <trkpt lat="43.73043" lon="5.92586">
        <ele>551.2</ele>
        <time>2023-11-15T11:29:31+01:00</time>
      </trkpt>
      <trkpt lat="43.73039" lon="5.92574">
        <ele>550.2</ele>
        <time>2023-11-15T11:29:44+01:00</time>
      </trkpt>
      <trkpt lat="43.73037" lon="5.92561">
        <ele>549.5</ele>
        <time>2023-11-15T11:29:56+01:00</time>
      </trkpt>
      <trkpt lat="43.73035" lon="5.92549">
        <ele>548.8</ele>
        <time>2023-11-15T11:30:06+01:00</time>
      </trkpt>
      <trkpt lat="43.7303" lon="5.92537">
        <ele>546.9</ele>
        <time>2023-11-15T11:30:20+01:00</time>
      </trkpt>
      <trkpt lat="43.73028" lon="5.92525">
        <ele>545.9</ele>
        <time>2023-11-15T11:30:33+01:00</time>
      </trkpt>
      <trkpt lat="43.73023" lon="5.92514">
        <ele>545.2</ele>
        <time>2023-11-15T11:31:37+01:00</time>
      </trkpt>
      <trkpt lat="43.73015" lon="5.92507">
        <ele>544</ele>
        <time>2023-11-15T11:32:01+01:00</time>
      </trkpt>
      <trkpt lat="43.73007" lon="5.92513">
        <ele>542.4</ele>
        <time>2023-11-15T11:32:27+01:00</time>
      </trkpt>
      <trkpt lat="43.73003" lon="5.92525">
        <ele>540.9</ele>
        <time>2023-11-15T11:32:40+01:00</time>
      </trkpt>
      <trkpt lat="43.73002" lon="5.92538">
        <ele>540</ele>
        <time>2023-11-15T11:32:55+01:00</time>
      </trkpt>
      <trkpt lat="43.72995" lon="5.92547">
        <ele>539.4</ele>
        <time>2023-11-15T11:33:09+01:00</time>
      </trkpt>
      <trkpt lat="43.72988" lon="5.92555">
        <ele>539</ele>
        <time>2023-11-15T11:33:20+01:00</time>
      </trkpt>
      <trkpt lat="43.72985" lon="5.92567">
        <ele>538</ele>
        <time>2023-11-15T11:33:30+01:00</time>
      </trkpt>
      <trkpt lat="43.72981" lon="5.9258">
        <ele>536.3</ele>
        <time>2023-11-15T11:33:44+01:00</time>
      </trkpt>
      <trkpt lat="43.72978" lon="5.92592">
        <ele>533.9</ele>
        <time>2023-11-15T11:33:58+01:00</time>
      </trkpt>
      <trkpt lat="43.72976" lon="5.92604">
        <ele>531.5</ele>
        <time>2023-11-15T11:34:13+01:00</time>
      </trkpt>
      <trkpt lat="43.72977" lon="5.92617">
        <ele>530.5</ele>
        <time>2023-11-15T11:34:28+01:00</time>
      </trkpt>
      <trkpt lat="43.72973" lon="5.92629">
        <ele>529.1</ele>
        <time>2023-11-15T11:34:46+01:00</time>
      </trkpt>
      <trkpt lat="43.72969" lon="5.92641">
        <ele>528.9</ele>
        <time>2023-11-15T11:34:59+01:00</time>
      </trkpt>
      <trkpt lat="43.72963" lon="5.92651">
        <ele>528.1</ele>
        <time>2023-11-15T11:35:08+01:00</time>
      </trkpt>
      <trkpt lat="43.72961" lon="5.92665">
        <ele>526.9</ele>
        <time>2023-11-15T11:35:20+01:00</time>
      </trkpt>
      <trkpt lat="43.72959" lon="5.92677">
        <ele>525.4</ele>
        <time>2023-11-15T11:35:30+01:00</time>
      </trkpt>
      <trkpt lat="43.72962" lon="5.9269">
        <ele>523.5</ele>
        <time>2023-11-15T11:35:41+01:00</time>
      </trkpt>
      <trkpt lat="43.72968" lon="5.927">
        <ele>521.3</ele>
        <time>2023-11-15T11:35:53+01:00</time>
      </trkpt>
      <trkpt lat="43.72973" lon="5.92712">
        <ele>519.1</ele>
        <time>2023-11-15T11:36:03+01:00</time>
      </trkpt>
      <trkpt lat="43.72976" lon="5.92724">
        <ele>518.7</ele>
        <time>2023-11-15T11:36:21+01:00</time>
      </trkpt>
      <trkpt lat="43.7298" lon="5.92736">
        <ele>519.1</ele>
        <time>2023-11-15T11:36:32+01:00</time>
      </trkpt>
      <trkpt lat="43.72987" lon="5.92746">
        <ele>518.2</ele>
        <time>2023-11-15T11:36:44+01:00</time>
      </trkpt>
      <trkpt lat="43.72993" lon="5.92756">
        <ele>516.5</ele>
        <time>2023-11-15T11:36:57+01:00</time>
      </trkpt>
      <trkpt lat="43.72998" lon="5.92768">
        <ele>514</ele>
        <time>2023-11-15T11:37:09+01:00</time>
      </trkpt>
      <trkpt lat="43.73002" lon="5.9278">
        <ele>512.4</ele>
        <time>2023-11-15T11:37:20+01:00</time>
      </trkpt>
      <trkpt lat="43.73005" lon="5.92791">
        <ele>512.9</ele>
        <time>2023-11-15T11:37:31+01:00</time>
      </trkpt>
      <trkpt lat="43.73009" lon="5.92804">
        <ele>512.5</ele>
        <time>2023-11-15T11:37:45+01:00</time>
      </trkpt>
      <trkpt lat="43.73015" lon="5.92815">
        <ele>512.2</ele>
        <time>2023-11-15T11:37:55+01:00</time>
      </trkpt>
      <trkpt lat="43.73016" lon="5.92828">
        <ele>511</ele>
        <time>2023-11-15T11:38:07+01:00</time>
      </trkpt>
      <trkpt lat="43.73018" lon="5.9284">
        <ele>509.3</ele>
        <time>2023-11-15T11:38:19+01:00</time>
      </trkpt>
      <trkpt lat="43.7302" lon="5.92852">
        <ele>506.6</ele>
        <time>2023-11-15T11:38:34+01:00</time>
      </trkpt>
      <trkpt lat="43.73026" lon="5.92862">
        <ele>502.7</ele>
        <time>2023-11-15T11:38:47+01:00</time>
      </trkpt>
      <trkpt lat="43.73032" lon="5.92872">
        <ele>503.6</ele>
        <time>2023-11-15T11:38:57+01:00</time>
      </trkpt>
      <trkpt lat="43.73037" lon="5.92884">
        <ele>504.3</ele>
        <time>2023-11-15T11:39:06+01:00</time>
      </trkpt>
      <trkpt lat="43.73043" lon="5.92894">
        <ele>504</ele>
        <time>2023-11-15T11:39:17+01:00</time>
      </trkpt>
      <trkpt lat="43.73047" lon="5.92906">
        <ele>502.4</ele>
        <time>2023-11-15T11:39:28+01:00</time>
      </trkpt>
      <trkpt lat="43.73045" lon="5.92919">
        <ele>500.6</ele>
        <time>2023-11-15T11:39:38+01:00</time>
      </trkpt>
      <trkpt lat="43.73048" lon="5.92931">
        <ele>498.9</ele>
        <time>2023-11-15T11:39:53+01:00</time>
      </trkpt>
      <trkpt lat="43.73048" lon="5.92944">
        <ele>497.1</ele>
        <time>2023-11-15T11:40:05+01:00</time>
      </trkpt>
      <trkpt lat="43.7305" lon="5.92957">
        <ele>495.6</ele>
        <time>2023-11-15T11:40:19+01:00</time>
      </trkpt>
      <trkpt lat="43.73054" lon="5.9297">
        <ele>493.1</ele>
        <time>2023-11-15T11:40:33+01:00</time>
      </trkpt>
      <trkpt lat="43.73058" lon="5.92981">
        <ele>492.4</ele>
        <time>2023-11-15T11:40:46+01:00</time>
      </trkpt>
      <trkpt lat="43.73061" lon="5.92993">
        <ele>492</ele>
        <time>2023-11-15T11:40:59+01:00</time>
      </trkpt>
      <trkpt lat="43.73064" lon="5.93005">
        <ele>491.4</ele>
        <time>2023-11-15T11:41:11+01:00</time>
      </trkpt>
      <trkpt lat="43.73069" lon="5.93017">
        <ele>490.6</ele>
        <time>2023-11-15T11:41:25+01:00</time>
      </trkpt>
      <trkpt lat="43.73073" lon="5.93028">
        <ele>489.1</ele>
        <time>2023-11-15T11:41:38+01:00</time>
      </trkpt>
      <trkpt lat="43.73076" lon="5.93039">
        <ele>488.4</ele>
        <time>2023-11-15T11:41:47+01:00</time>
      </trkpt>
      <trkpt lat="43.73081" lon="5.9305">
        <ele>486.9</ele>
        <time>2023-11-15T11:41:56+01:00</time>
      </trkpt>
      <trkpt lat="43.73086" lon="5.93062">
        <ele>486.2</ele>
        <time>2023-11-15T11:42:07+01:00</time>
      </trkpt>
      <trkpt lat="43.73087" lon="5.93075">
        <ele>486.8</ele>
        <time>2023-11-15T11:42:17+01:00</time>
      </trkpt>
      <trkpt lat="43.7309" lon="5.93086">
        <ele>487.1</ele>
        <time>2023-11-15T11:42:26+01:00</time>
      </trkpt>
      <trkpt lat="43.73093" lon="5.931">
        <ele>487.2</ele>
        <time>2023-11-15T11:42:37+01:00</time>
      </trkpt>
      <trkpt lat="43.73096" lon="5.93114">
        <ele>486.9</ele>
        <time>2023-11-15T11:42:48+01:00</time>
      </trkpt>
      <trkpt lat="43.7309" lon="5.93124">
        <ele>486.2</ele>
        <time>2023-11-15T11:42:57+01:00</time>
      </trkpt>
      <trkpt lat="43.73084" lon="5.93134">
        <ele>484.8</ele>
        <time>2023-11-15T11:43:06+01:00</time>
      </trkpt>
      <trkpt lat="43.73078" lon="5.93144">
        <ele>484.5</ele>
        <time>2023-11-15T11:43:14+01:00</time>
      </trkpt>
      <trkpt lat="43.73073" lon="5.93155">
        <ele>484.1</ele>
        <time>2023-11-15T11:43:25+01:00</time>
      </trkpt>
      <trkpt lat="43.73065" lon="5.93163">
        <ele>484.3</ele>
        <time>2023-11-15T11:43:33+01:00</time>
      </trkpt>
      <trkpt lat="43.73056" lon="5.93168">
        <ele>484.9</ele>
        <time>2023-11-15T11:43:41+01:00</time>
      </trkpt>
      <trkpt lat="43.73048" lon="5.93175">
        <ele>485.3</ele>
        <time>2023-11-15T11:43:49+01:00</time>
      </trkpt>
      <trkpt lat="43.73043" lon="5.93187">
        <ele>485</ele>
        <time>2023-11-15T11:43:59+01:00</time>
      </trkpt>
      <trkpt lat="43.7304" lon="5.93199">
        <ele>485</ele>
        <time>2023-11-15T11:44:13+01:00</time>
      </trkpt>
      <trkpt lat="43.73043" lon="5.93211">
        <ele>485.1</ele>
        <time>2023-11-15T11:44:24+01:00</time>
      </trkpt>
      <trkpt lat="43.73041" lon="5.93224">
        <ele>486.3</ele>
        <time>2023-11-15T11:44:35+01:00</time>
      </trkpt>
      <trkpt lat="43.73043" lon="5.93236">
        <ele>486.8</ele>
        <time>2023-11-15T11:44:44+01:00</time>
      </trkpt>
      <trkpt lat="43.73044" lon="5.9325">
        <ele>487.9</ele>
        <time>2023-11-15T11:44:54+01:00</time>
      </trkpt>
      <trkpt lat="43.73044" lon="5.93263">
        <ele>489.1</ele>
        <time>2023-11-15T11:45:07+01:00</time>
      </trkpt>
      <trkpt lat="43.73047" lon="5.93276">
        <ele>490.1</ele>
        <time>2023-11-15T11:45:18+01:00</time>
      </trkpt>
      <trkpt lat="43.7305" lon="5.93289">
        <ele>490.4</ele>
        <time>2023-11-15T11:45:28+01:00</time>
      </trkpt>
      <trkpt lat="43.73047" lon="5.93302">
        <ele>491.1</ele>
        <time>2023-11-15T11:45:37+01:00</time>
      </trkpt>
      <trkpt lat="43.73045" lon="5.93314">
        <ele>491</ele>
        <time>2023-11-15T11:45:49+01:00</time>
      </trkpt>
      <trkpt lat="43.73042" lon="5.93326">
        <ele>490.4</ele>
        <time>2023-11-15T11:45:57+01:00</time>
      </trkpt>
      <trkpt lat="43.73035" lon="5.93334">
        <ele>489.9</ele>
        <time>2023-11-15T11:46:05+01:00</time>
      </trkpt>
      <trkpt lat="43.73027" lon="5.93343">
        <ele>489.4</ele>
        <time>2023-11-15T11:46:16+01:00</time>
      </trkpt>
      <trkpt lat="43.73021" lon="5.93352">
        <ele>489.1</ele>
        <time>2023-11-15T11:46:26+01:00</time>
      </trkpt>
      <trkpt lat="43.73011" lon="5.93355">
        <ele>489.3</ele>
        <time>2023-11-15T11:46:36+01:00</time>
      </trkpt>
      <trkpt lat="43.73002" lon="5.93354">
        <ele>489.9</ele>
        <time>2023-11-15T11:46:48+01:00</time>
      </trkpt>
      <trkpt lat="43.72993" lon="5.93356">
        <ele>489.6</ele>
        <time>2023-11-15T11:46:58+01:00</time>
      </trkpt>
      <trkpt lat="43.72987" lon="5.93367">
        <ele>488.1</ele>
        <time>2023-11-15T11:47:11+01:00</time>
      </trkpt>
      <trkpt lat="43.72978" lon="5.9337">
        <ele>487.7</ele>
        <time>2023-11-15T11:47:22+01:00</time>
      </trkpt>
      <trkpt lat="43.72967" lon="5.93371">
        <ele>487</ele>
        <time>2023-11-15T11:47:34+01:00</time>
      </trkpt>
      <trkpt lat="43.72958" lon="5.93368">
        <ele>486.1</ele>
        <time>2023-11-15T11:48:00+01:00</time>
      </trkpt>
      <trkpt lat="43.72949" lon="5.93367">
        <ele>485</ele>
        <time>2023-11-15T11:52:39+01:00</time>
      </trkpt>
      <trkpt lat="43.7294" lon="5.93364">
        <ele>484.4</ele>
        <time>2023-11-15T11:53:08+01:00</time>
      </trkpt>
      <trkpt lat="43.72931" lon="5.9336">
        <ele>484.1</ele>
        <time>2023-11-15T11:53:19+01:00</time>
      </trkpt>
      <trkpt lat="43.72922" lon="5.93357">
        <ele>483.7</ele>
        <time>2023-11-15T11:53:30+01:00</time>
      </trkpt>
      <trkpt lat="43.72912" lon="5.93357">
        <ele>483.3</ele>
        <time>2023-11-15T11:53:42+01:00</time>
      </trkpt>
      <trkpt lat="43.72903" lon="5.93361">
        <ele>483</ele>
        <time>2023-11-15T11:53:55+01:00</time>
      </trkpt>
      <trkpt lat="43.72896" lon="5.9337">
        <ele>482.6</ele>
        <time>2023-11-15T11:54:05+01:00</time>
      </trkpt>
      <trkpt lat="43.72892" lon="5.93381">
        <ele>482.2</ele>
        <time>2023-11-15T11:54:16+01:00</time>
      </trkpt>
      <trkpt lat="43.72885" lon="5.93391">
        <ele>482.1</ele>
        <time>2023-11-15T11:54:27+01:00</time>
      </trkpt>
      <trkpt lat="43.72882" lon="5.93403">
        <ele>481.8</ele>
        <time>2023-11-15T11:54:37+01:00</time>
      </trkpt>
      <trkpt lat="43.72879" lon="5.93415">
        <ele>481.4</ele>
        <time>2023-11-15T11:54:48+01:00</time>
      </trkpt>
      <trkpt lat="43.7288" lon="5.93429">
        <ele>481</ele>
        <time>2023-11-15T11:54:57+01:00</time>
      </trkpt>
      <trkpt lat="43.72878" lon="5.93441">
        <ele>480.9</ele>
        <time>2023-11-15T11:55:06+01:00</time>
      </trkpt>
      <trkpt lat="43.72874" lon="5.93453">
        <ele>481.3</ele>
        <time>2023-11-15T11:55:15+01:00</time>
      </trkpt>
      <trkpt lat="43.72868" lon="5.93463">
        <ele>481.8</ele>
        <time>2023-11-15T11:55:24+01:00</time>
      </trkpt>
      <trkpt lat="43.72864" lon="5.93474">
        <ele>482.2</ele>
        <time>2023-11-15T11:55:35+01:00</time>
      </trkpt>
      <trkpt lat="43.72862" lon="5.93488">
        <ele>483.7</ele>
        <time>2023-11-15T11:55:52+01:00</time>
      </trkpt>
      <trkpt lat="43.72861" lon="5.93501">
        <ele>485.1</ele>
        <time>2023-11-15T11:56:06+01:00</time>
      </trkpt>
      <trkpt lat="43.72862" lon="5.93515">
        <ele>485.7</ele>
        <time>2023-11-15T11:56:20+01:00</time>
      </trkpt>
      <trkpt lat="43.72858" lon="5.93527">
        <ele>485.9</ele>
        <time>2023-11-15T11:56:30+01:00</time>
      </trkpt>
      <trkpt lat="43.72854" lon="5.93539">
        <ele>485.2</ele>
        <time>2023-11-15T11:56:39+01:00</time>
      </trkpt>
      <trkpt lat="43.72846" lon="5.93544">
        <ele>484.2</ele>
        <time>2023-11-15T11:56:49+01:00</time>
      </trkpt>
      <trkpt lat="43.72838" lon="5.9355">
        <ele>483.1</ele>
        <time>2023-11-15T11:56:58+01:00</time>
      </trkpt>
      <trkpt lat="43.72829" lon="5.93554">
        <ele>482.7</ele>
        <time>2023-11-15T11:57:07+01:00</time>
      </trkpt>
      <trkpt lat="43.72821" lon="5.93559">
        <ele>483.1</ele>
        <time>2023-11-15T11:57:30+01:00</time>
      </trkpt>
      <trkpt lat="43.72816" lon="5.93569">
        <ele>482.8</ele>
        <time>2023-11-15T11:57:40+01:00</time>
      </trkpt>
      <trkpt lat="43.72816" lon="5.93582">
        <ele>481.7</ele>
        <time>2023-11-15T11:57:57+01:00</time>
      </trkpt>
      <trkpt lat="43.72812" lon="5.93595">
        <ele>482</ele>
        <time>2023-11-15T11:58:06+01:00</time>
      </trkpt>
      <trkpt lat="43.72804" lon="5.93599">
        <ele>482.8</ele>
        <time>2023-11-15T11:58:17+01:00</time>
      </trkpt>
      <trkpt lat="43.72794" lon="5.93604">
        <ele>484</ele>
        <time>2023-11-15T11:58:29+01:00</time>
      </trkpt>
      <trkpt lat="43.72784" lon="5.93608">
        <ele>485.2</ele>
        <time>2023-11-15T11:58:42+01:00</time>
      </trkpt>
      <trkpt lat="43.72775" lon="5.93613">
        <ele>486.7</ele>
        <time>2023-11-15T11:58:54+01:00</time>
      </trkpt>
      <trkpt lat="43.72766" lon="5.93615">
        <ele>487.5</ele>
        <time>2023-11-15T11:59:04+01:00</time>
      </trkpt>
      <trkpt lat="43.72757" lon="5.93617">
        <ele>488.6</ele>
        <time>2023-11-15T11:59:15+01:00</time>
      </trkpt>
      <trkpt lat="43.72748" lon="5.93619">
        <ele>489.6</ele>
        <time>2023-11-15T11:59:28+01:00</time>
      </trkpt>
      <trkpt lat="43.72739" lon="5.93623">
        <ele>491.1</ele>
        <time>2023-11-15T11:59:39+01:00</time>
      </trkpt>
      <trkpt lat="43.7273" lon="5.93629">
        <ele>492.3</ele>
        <time>2023-11-15T11:59:51+01:00</time>
      </trkpt>
      <trkpt lat="43.72721" lon="5.93633">
        <ele>493</ele>
        <time>2023-11-15T12:00:04+01:00</time>
      </trkpt>
      <trkpt lat="43.72712" lon="5.93636">
        <ele>494.6</ele>
        <time>2023-11-15T12:00:18+01:00</time>
      </trkpt>
      <trkpt lat="43.72703" lon="5.93643">
        <ele>496.2</ele>
        <time>2023-11-15T12:00:29+01:00</time>
      </trkpt>
      <trkpt lat="43.72693" lon="5.93646">
        <ele>497.8</ele>
        <time>2023-11-15T12:00:45+01:00</time>
      </trkpt>
      <trkpt lat="43.72686" lon="5.93654">
        <ele>500.2</ele>
        <time>2023-11-15T12:00:56+01:00</time>
      </trkpt>
      <trkpt lat="43.72683" lon="5.93666">
        <ele>500.5</ele>
        <time>2023-11-15T12:01:09+01:00</time>
      </trkpt>
      <trkpt lat="43.72682" lon="5.93679">
        <ele>502.2</ele>
        <time>2023-11-15T12:01:20+01:00</time>
      </trkpt>
      <trkpt lat="43.72675" lon="5.93689">
        <ele>503.3</ele>
        <time>2023-11-15T12:01:29+01:00</time>
      </trkpt>
      <trkpt lat="43.72668" lon="5.93697">
        <ele>503.7</ele>
        <time>2023-11-15T12:01:39+01:00</time>
      </trkpt>
      <trkpt lat="43.7266" lon="5.93706">
        <ele>506</ele>
        <time>2023-11-15T12:01:52+01:00</time>
      </trkpt>
      <trkpt lat="43.72651" lon="5.93709">
        <ele>507.5</ele>
        <time>2023-11-15T12:02:03+01:00</time>
      </trkpt>
      <trkpt lat="43.72642" lon="5.93712">
        <ele>508.7</ele>
        <time>2023-11-15T12:02:15+01:00</time>
      </trkpt>
      <trkpt lat="43.72633" lon="5.93717">
        <ele>510</ele>
        <time>2023-11-15T12:02:34+01:00</time>
      </trkpt>
      <trkpt lat="43.72624" lon="5.93718">
        <ele>511.5</ele>
        <time>2023-11-15T12:02:44+01:00</time>
      </trkpt>
      <trkpt lat="43.7263" lon="5.93727">
        <ele>511.4</ele>
        <time>2023-11-15T12:03:15+01:00</time>
      </trkpt>
      <trkpt lat="43.72637" lon="5.93736">
        <ele>512.4</ele>
        <time>2023-11-15T12:03:28+01:00</time>
      </trkpt>
      <trkpt lat="43.72643" lon="5.93745">
        <ele>514.1</ele>
        <time>2023-11-15T12:03:42+01:00</time>
      </trkpt>
      <trkpt lat="43.72649" lon="5.93755">
        <ele>516.4</ele>
        <time>2023-11-15T12:03:58+01:00</time>
      </trkpt>
      <trkpt lat="43.72655" lon="5.93765">
        <ele>518.2</ele>
        <time>2023-11-15T12:04:14+01:00</time>
      </trkpt>
      <trkpt lat="43.7266" lon="5.93776">
        <ele>520</ele>
        <time>2023-11-15T12:04:33+01:00</time>
      </trkpt>
      <trkpt lat="43.72666" lon="5.93787">
        <ele>518.5</ele>
        <time>2023-11-15T12:05:10+01:00</time>
      </trkpt>
      <trkpt lat="43.72674" lon="5.9379">
        <ele>518.3</ele>
        <time>2023-11-15T12:06:32+01:00</time>
      </trkpt>
      <trkpt lat="43.72683" lon="5.93792">
        <ele>518.2</ele>
        <time>2023-11-15T12:06:49+01:00</time>
      </trkpt>
      <trkpt lat="43.72693" lon="5.93795">
        <ele>518.1</ele>
        <time>2023-11-15T12:07:03+01:00</time>
      </trkpt>
      <trkpt lat="43.72701" lon="5.93799">
        <ele>517.7</ele>
        <time>2023-11-15T12:07:14+01:00</time>
      </trkpt>
      <trkpt lat="43.7271" lon="5.93802">
        <ele>517.3</ele>
        <time>2023-11-15T12:07:24+01:00</time>
      </trkpt>
      <trkpt lat="43.72719" lon="5.93805">
        <ele>517.1</ele>
        <time>2023-11-15T12:07:35+01:00</time>
      </trkpt>
      <trkpt lat="43.72728" lon="5.93809">
        <ele>516.1</ele>
        <time>2023-11-15T12:07:46+01:00</time>
      </trkpt>
      <trkpt lat="43.72737" lon="5.93811">
        <ele>515.7</ele>
        <time>2023-11-15T12:07:56+01:00</time>
      </trkpt>
      <trkpt lat="43.72745" lon="5.93815">
        <ele>514.6</ele>
        <time>2023-11-15T12:08:07+01:00</time>
      </trkpt>
      <trkpt lat="43.72754" lon="5.9382">
        <ele>513.5</ele>
        <time>2023-11-15T12:08:17+01:00</time>
      </trkpt>
      <trkpt lat="43.72762" lon="5.93826">
        <ele>512.4</ele>
        <time>2023-11-15T12:08:28+01:00</time>
      </trkpt>
      <trkpt lat="43.7277" lon="5.93831">
        <ele>511.3</ele>
        <time>2023-11-15T12:08:39+01:00</time>
      </trkpt>
      <trkpt lat="43.72778" lon="5.93839">
        <ele>509.6</ele>
        <time>2023-11-15T12:08:49+01:00</time>
      </trkpt>
      <trkpt lat="43.72788" lon="5.93843">
        <ele>508.1</ele>
        <time>2023-11-15T12:09:00+01:00</time>
      </trkpt>
      <trkpt lat="43.72797" lon="5.93845">
        <ele>507.1</ele>
        <time>2023-11-15T12:09:09+01:00</time>
      </trkpt>
      <trkpt lat="43.72806" lon="5.93844">
        <ele>506.6</ele>
        <time>2023-11-15T12:09:20+01:00</time>
      </trkpt>
      <trkpt lat="43.72815" lon="5.9384">
        <ele>506.3</ele>
        <time>2023-11-15T12:09:32+01:00</time>
      </trkpt>
      <trkpt lat="43.72824" lon="5.9384">
        <ele>504.9</ele>
        <time>2023-11-15T12:09:42+01:00</time>
      </trkpt>
      <trkpt lat="43.72833" lon="5.93845">
        <ele>503.2</ele>
        <time>2023-11-15T12:09:52+01:00</time>
      </trkpt>
      <trkpt lat="43.72842" lon="5.93849">
        <ele>502.6</ele>
        <time>2023-11-15T12:10:02+01:00</time>
      </trkpt>
      <trkpt lat="43.72839" lon="5.93863">
        <ele>502</ele>
        <time>2023-11-15T12:10:15+01:00</time>
      </trkpt>
      <trkpt lat="43.72835" lon="5.93875">
        <ele>500.2</ele>
        <time>2023-11-15T12:10:26+01:00</time>
      </trkpt>
      <trkpt lat="43.72829" lon="5.93884">
        <ele>498.8</ele>
        <time>2023-11-15T12:10:39+01:00</time>
      </trkpt>
      <trkpt lat="43.72822" lon="5.93894">
        <ele>497.7</ele>
        <time>2023-11-15T12:10:50+01:00</time>
      </trkpt>
      <trkpt lat="43.72816" lon="5.93903">
        <ele>496.5</ele>
        <time>2023-11-15T12:11:02+01:00</time>
      </trkpt>
      <trkpt lat="43.72815" lon="5.93915">
        <ele>494.5</ele>
        <time>2023-11-15T12:11:15+01:00</time>
      </trkpt>
      <trkpt lat="43.72811" lon="5.93927">
        <ele>492.6</ele>
        <time>2023-11-15T12:11:29+01:00</time>
      </trkpt>
      <trkpt lat="43.72807" lon="5.93939">
        <ele>490.2</ele>
        <time>2023-11-15T12:11:39+01:00</time>
      </trkpt>
      <trkpt lat="43.72802" lon="5.9395">
        <ele>488.5</ele>
        <time>2023-11-15T12:11:53+01:00</time>
      </trkpt>
      <trkpt lat="43.72796" lon="5.9396">
        <ele>487.5</ele>
        <time>2023-11-15T12:12:04+01:00</time>
      </trkpt>
      <trkpt lat="43.72789" lon="5.93969">
        <ele>486.2</ele>
        <time>2023-11-15T12:12:16+01:00</time>
      </trkpt>
      <trkpt lat="43.7278" lon="5.93973">
        <ele>485.2</ele>
        <time>2023-11-15T12:12:26+01:00</time>
      </trkpt>
      <trkpt lat="43.72779" lon="5.93986">
        <ele>484.1</ele>
        <time>2023-11-15T12:12:42+01:00</time>
      </trkpt>
      <trkpt lat="43.7278" lon="5.93999">
        <ele>483.2</ele>
        <time>2023-11-15T12:12:53+01:00</time>
      </trkpt>
      <trkpt lat="43.7277" lon="5.93998">
        <ele>481.5</ele>
        <time>2023-11-15T12:13:06+01:00</time>
      </trkpt>
      <trkpt lat="43.7276" lon="5.93997">
        <ele>479.6</ele>
        <time>2023-11-15T12:13:19+01:00</time>
      </trkpt>
      <trkpt lat="43.72751" lon="5.93998">
        <ele>477.5</ele>
        <time>2023-11-15T12:13:30+01:00</time>
      </trkpt>
      <trkpt lat="43.72746" lon="5.94008">
        <ele>477.2</ele>
        <time>2023-11-15T12:13:41+01:00</time>
      </trkpt>
      <trkpt lat="43.7274" lon="5.94019">
        <ele>476.6</ele>
        <time>2023-11-15T12:13:52+01:00</time>
      </trkpt>
      <trkpt lat="43.72736" lon="5.94031">
        <ele>475.2</ele>
        <time>2023-11-15T12:14:01+01:00</time>
      </trkpt>
      <trkpt lat="43.72742" lon="5.9404">
        <ele>474</ele>
        <time>2023-11-15T12:14:14+01:00</time>
      </trkpt>
      <trkpt lat="43.72743" lon="5.94053">
        <ele>472.1</ele>
        <time>2023-11-15T12:14:33+01:00</time>
      </trkpt>
      <trkpt lat="43.72749" lon="5.94064">
        <ele>470.1</ele>
        <time>2023-11-15T12:14:44+01:00</time>
      </trkpt>
      <trkpt lat="43.72749" lon="5.94076">
        <ele>468.3</ele>
        <time>2023-11-15T12:14:55+01:00</time>
      </trkpt>
      <trkpt lat="43.7274" lon="5.94083">
        <ele>470.6</ele>
        <time>2023-11-15T12:15:03+01:00</time>
      </trkpt>
      <trkpt lat="43.72735" lon="5.94094">
        <ele>471.9</ele>
        <time>2023-11-15T12:15:22+01:00</time>
      </trkpt>
      <trkpt lat="43.72728" lon="5.94103">
        <ele>474.5</ele>
        <time>2023-11-15T12:15:42+01:00</time>
      </trkpt>
      <trkpt lat="43.72725" lon="5.94115">
        <ele>476.3</ele>
        <time>2023-11-15T12:15:58+01:00</time>
      </trkpt>
      <trkpt lat="43.72718" lon="5.94123">
        <ele>480.2</ele>
        <time>2023-11-15T12:16:16+01:00</time>
      </trkpt>
      <trkpt lat="43.72716" lon="5.94136">
        <ele>482.2</ele>
        <time>2023-11-15T12:16:32+01:00</time>
      </trkpt>
      <trkpt lat="43.72712" lon="5.94149">
        <ele>482.7</ele>
        <time>2023-11-15T12:16:46+01:00</time>
      </trkpt>
      <trkpt lat="43.72702" lon="5.94149">
        <ele>484.2</ele>
        <time>2023-11-15T12:16:59+01:00</time>
      </trkpt>
      <trkpt lat="43.727" lon="5.94162">
        <ele>482</ele>
        <time>2023-11-15T12:17:10+01:00</time>
      </trkpt>
      <trkpt lat="43.72694" lon="5.94172">
        <ele>479.6</ele>
        <time>2023-11-15T12:17:20+01:00</time>
      </trkpt>
      <trkpt lat="43.72688" lon="5.94183">
        <ele>477.5</ele>
        <time>2023-11-15T12:17:31+01:00</time>
      </trkpt>
      <trkpt lat="43.72682" lon="5.94194">
        <ele>475.2</ele>
        <time>2023-11-15T12:17:43+01:00</time>
      </trkpt>
      <trkpt lat="43.72676" lon="5.94204">
        <ele>473.6</ele>
        <time>2023-11-15T12:17:53+01:00</time>
      </trkpt>
      <trkpt lat="43.72669" lon="5.94213">
        <ele>472.2</ele>
        <time>2023-11-15T12:18:06+01:00</time>
      </trkpt>
      <trkpt lat="43.72662" lon="5.94222">
        <ele>470.4</ele>
        <time>2023-11-15T12:18:15+01:00</time>
      </trkpt>
      <trkpt lat="43.72654" lon="5.94229">
        <ele>470.1</ele>
        <time>2023-11-15T12:18:24+01:00</time>
      </trkpt>
      <trkpt lat="43.72645" lon="5.94236">
        <ele>470.9</ele>
        <time>2023-11-15T12:18:34+01:00</time>
      </trkpt>
      <trkpt lat="43.72646" lon="5.94248">
        <ele>470.1</ele>
        <time>2023-11-15T12:18:47+01:00</time>
      </trkpt>
      <trkpt lat="43.72643" lon="5.94261">
        <ele>472.4</ele>
        <time>2023-11-15T12:19:03+01:00</time>
      </trkpt>
      <trkpt lat="43.72642" lon="5.94273">
        <ele>474.7</ele>
        <time>2023-11-15T12:19:20+01:00</time>
      </trkpt>
      <trkpt lat="43.72638" lon="5.94286">
        <ele>478.1</ele>
        <time>2023-11-15T12:19:34+01:00</time>
      </trkpt>
      <trkpt lat="43.7263" lon="5.94294">
        <ele>482.7</ele>
        <time>2023-11-15T12:19:57+01:00</time>
      </trkpt>
      <trkpt lat="43.72628" lon="5.94306">
        <ele>485.6</ele>
        <time>2023-11-15T12:25:33+01:00</time>
      </trkpt>
      <trkpt lat="43.72625" lon="5.94319">
        <ele>486.7</ele>
        <time>2023-11-15T12:25:47+01:00</time>
      </trkpt>
      <trkpt lat="43.72618" lon="5.94326">
        <ele>488.2</ele>
        <time>2023-11-15T12:26:10+01:00</time>
      </trkpt>
      <trkpt lat="43.72613" lon="5.94337">
        <ele>487.9</ele>
        <time>2023-11-15T12:30:12+01:00</time>
      </trkpt>
      <trkpt lat="43.72613" lon="5.9435">
        <ele>485.2</ele>
        <time>2023-11-15T12:30:27+01:00</time>
      </trkpt>
      <trkpt lat="43.72607" lon="5.94358">
        <ele>484.3</ele>
        <time>2023-11-15T12:30:37+01:00</time>
      </trkpt>
      <trkpt lat="43.72599" lon="5.94367">
        <ele>483.1</ele>
        <time>2023-11-15T12:30:48+01:00</time>
      </trkpt>
      <trkpt lat="43.72591" lon="5.94374">
        <ele>482.6</ele>
        <time>2023-11-15T12:31:01+01:00</time>
      </trkpt>
      <trkpt lat="43.72582" lon="5.9438">
        <ele>482.3</ele>
        <time>2023-11-15T12:31:12+01:00</time>
      </trkpt>
      <trkpt lat="43.72575" lon="5.9439">
        <ele>481</ele>
        <time>2023-11-15T12:31:25+01:00</time>
      </trkpt>
      <trkpt lat="43.72569" lon="5.94398">
        <ele>479.8</ele>
        <time>2023-11-15T12:31:36+01:00</time>
      </trkpt>
      <trkpt lat="43.7256" lon="5.94404">
        <ele>479.5</ele>
        <time>2023-11-15T12:31:45+01:00</time>
      </trkpt>
      <trkpt lat="43.72552" lon="5.94409">
        <ele>478.9</ele>
        <time>2023-11-15T12:31:56+01:00</time>
      </trkpt>
      <trkpt lat="43.72542" lon="5.94408">
        <ele>478.6</ele>
        <time>2023-11-15T12:32:07+01:00</time>
      </trkpt>
      <trkpt lat="43.72534" lon="5.94413">
        <ele>477.2</ele>
        <time>2023-11-15T12:32:21+01:00</time>
      </trkpt>
      <trkpt lat="43.72526" lon="5.94419">
        <ele>474.9</ele>
        <time>2023-11-15T12:32:32+01:00</time>
      </trkpt>
      <trkpt lat="43.72517" lon="5.94418">
        <ele>474.1</ele>
        <time>2023-11-15T12:32:43+01:00</time>
      </trkpt>
      <trkpt lat="43.72507" lon="5.94419">
        <ele>472.4</ele>
        <time>2023-11-15T12:32:53+01:00</time>
      </trkpt>
      <trkpt lat="43.72499" lon="5.94425">
        <ele>469.6</ele>
        <time>2023-11-15T12:33:09+01:00</time>
      </trkpt>
      <trkpt lat="43.72491" lon="5.94428">
        <ele>469.5</ele>
        <time>2023-11-15T12:33:33+01:00</time>
      </trkpt>
      <trkpt lat="43.72487" lon="5.9444">
        <ele>468.8</ele>
        <time>2023-11-15T12:33:55+01:00</time>
      </trkpt>
      <trkpt lat="43.72483" lon="5.94451">
        <ele>469.9</ele>
        <time>2023-11-15T12:34:18+01:00</time>
      </trkpt>
      <trkpt lat="43.72473" lon="5.94454">
        <ele>473.2</ele>
        <time>2023-11-15T12:34:33+01:00</time>
      </trkpt>
      <trkpt lat="43.72468" lon="5.94464">
        <ele>476.1</ele>
        <time>2023-11-15T12:34:50+01:00</time>
      </trkpt>
      <trkpt lat="43.72461" lon="5.94472">
        <ele>479.1</ele>
        <time>2023-11-15T12:35:11+01:00</time>
      </trkpt>
      <trkpt lat="43.72462" lon="5.94485">
        <ele>478.2</ele>
        <time>2023-11-15T12:35:29+01:00</time>
      </trkpt>
      <trkpt lat="43.72467" lon="5.94495">
        <ele>476.6</ele>
        <time>2023-11-15T12:36:34+01:00</time>
      </trkpt>
      <trkpt lat="43.72468" lon="5.94508">
        <ele>474.6</ele>
        <time>2023-11-15T12:36:48+01:00</time>
      </trkpt>
      <trkpt lat="43.72463" lon="5.94519">
        <ele>474.1</ele>
        <time>2023-11-15T12:36:57+01:00</time>
      </trkpt>
      <trkpt lat="43.72456" lon="5.94529">
        <ele>473.7</ele>
        <time>2023-11-15T12:37:08+01:00</time>
      </trkpt>
      <trkpt lat="43.72451" lon="5.94542">
        <ele>471.9</ele>
        <time>2023-11-15T12:37:25+01:00</time>
      </trkpt>
      <trkpt lat="43.72445" lon="5.94554">
        <ele>470.2</ele>
        <time>2023-11-15T12:37:27+01:00</time>
      </trkpt>
      <trkpt lat="43.72436" lon="5.9456">
        <ele>469.5</ele>
        <time>2023-11-15T12:37:51+01:00</time>
      </trkpt>
      <trkpt lat="43.7243" lon="5.9457">
        <ele>467.2</ele>
        <time>2023-11-15T12:38:04+01:00</time>
      </trkpt>
      <trkpt lat="43.72425" lon="5.9458">
        <ele>464.6</ele>
        <time>2023-11-15T12:38:12+01:00</time>
      </trkpt>
      <trkpt lat="43.72418" lon="5.94589">
        <ele>462.9</ele>
        <time>2023-11-15T12:38:24+01:00</time>
      </trkpt>
      <trkpt lat="43.72409" lon="5.94589">
        <ele>463.2</ele>
        <time>2023-11-15T12:38:38+01:00</time>
      </trkpt>
      <trkpt lat="43.72416" lon="5.94598">
        <ele>461.5</ele>
        <time>2023-11-15T12:39:07+01:00</time>
      </trkpt>
      <trkpt lat="43.72426" lon="5.94598">
        <ele>460.9</ele>
        <time>2023-11-15T12:39:19+01:00</time>
      </trkpt>
      <trkpt lat="43.72435" lon="5.94602">
        <ele>459.6</ele>
        <time>2023-11-15T12:39:28+01:00</time>
      </trkpt>
      <trkpt lat="43.72446" lon="5.94604">
        <ele>458.4</ele>
        <time>2023-11-15T12:39:42+01:00</time>
      </trkpt>
      <trkpt lat="43.72455" lon="5.94607">
        <ele>456.9</ele>
        <time>2023-11-15T12:39:51+01:00</time>
      </trkpt>
      <trkpt lat="43.72462" lon="5.94616">
        <ele>456.2</ele>
        <time>2023-11-15T12:39:59+01:00</time>
      </trkpt>
      <trkpt lat="43.7246" lon="5.94629">
        <ele>457.7</ele>
        <time>2023-11-15T12:40:10+01:00</time>
      </trkpt>
      <trkpt lat="43.72452" lon="5.94635">
        <ele>459</ele>
        <time>2023-11-15T12:40:22+01:00</time>
      </trkpt>
      <trkpt lat="43.72444" lon="5.94624">
        <ele>458.5</ele>
        <time>2023-11-15T12:40:50+01:00</time>
      </trkpt>
      <trkpt lat="43.72449" lon="5.94636">
        <ele>459.4</ele>
        <time>2023-11-15T12:41:12+01:00</time>
      </trkpt>
      <trkpt lat="43.72447" lon="5.94649">
        <ele>461.3</ele>
        <time>2023-11-15T12:41:39+01:00</time>
      </trkpt>
      <trkpt lat="43.72444" lon="5.94661">
        <ele>463.3</ele>
        <time>2023-11-15T12:41:52+01:00</time>
      </trkpt>
      <trkpt lat="43.72451" lon="5.94669">
        <ele>463.9</ele>
        <time>2023-11-15T12:42:04+01:00</time>
      </trkpt>
      <trkpt lat="43.72458" lon="5.94678">
        <ele>465.1</ele>
        <time>2023-11-15T12:42:16+01:00</time>
      </trkpt>
      <trkpt lat="43.72465" lon="5.94687">
        <ele>465.7</ele>
        <time>2023-11-15T12:42:26+01:00</time>
      </trkpt>
      <trkpt lat="43.72474" lon="5.94692">
        <ele>465.8</ele>
        <time>2023-11-15T12:42:40+01:00</time>
      </trkpt>
      <trkpt lat="43.72484" lon="5.94688">
        <ele>466</ele>
        <time>2023-11-15T12:42:49+01:00</time>
      </trkpt>
      <trkpt lat="43.72493" lon="5.94684">
        <ele>466.2</ele>
        <time>2023-11-15T12:42:59+01:00</time>
      </trkpt>
      <trkpt lat="43.72502" lon="5.94679">
        <ele>466.6</ele>
        <time>2023-11-15T12:43:09+01:00</time>
      </trkpt>
      <trkpt lat="43.72511" lon="5.94676">
        <ele>467.5</ele>
        <time>2023-11-15T12:43:18+01:00</time>
      </trkpt>
      <trkpt lat="43.72519" lon="5.94669">
        <ele>468</ele>
        <time>2023-11-15T12:43:27+01:00</time>
      </trkpt>
      <trkpt lat="43.72525" lon="5.94659">
        <ele>468.3</ele>
        <time>2023-11-15T12:43:37+01:00</time>
      </trkpt>
      <trkpt lat="43.72533" lon="5.9465">
        <ele>469.1</ele>
        <time>2023-11-15T12:43:47+01:00</time>
      </trkpt>
      <trkpt lat="43.72542" lon="5.94645">
        <ele>470</ele>
        <time>2023-11-15T12:43:59+01:00</time>
      </trkpt>
      <trkpt lat="43.72552" lon="5.94644">
        <ele>471.1</ele>
        <time>2023-11-15T12:44:08+01:00</time>
      </trkpt>
      <trkpt lat="43.72561" lon="5.9464">
        <ele>471.4</ele>
        <time>2023-11-15T12:44:19+01:00</time>
      </trkpt>
      <trkpt lat="43.7257" lon="5.94638">
        <ele>471.9</ele>
        <time>2023-11-15T12:44:28+01:00</time>
      </trkpt>
      <trkpt lat="43.72579" lon="5.94643">
        <ele>473</ele>
        <time>2023-11-15T12:44:38+01:00</time>
      </trkpt>
      <trkpt lat="43.72587" lon="5.94647">
        <ele>473.2</ele>
        <time>2023-11-15T12:44:46+01:00</time>
      </trkpt>
      <trkpt lat="43.72595" lon="5.94654">
        <ele>473.2</ele>
        <time>2023-11-15T12:44:54+01:00</time>
      </trkpt>
      <trkpt lat="43.72603" lon="5.94663">
        <ele>473.9</ele>
        <time>2023-11-15T12:45:03+01:00</time>
      </trkpt>
      <trkpt lat="43.72608" lon="5.94673">
        <ele>474.4</ele>
        <time>2023-11-15T12:45:09+01:00</time>
      </trkpt>
      <trkpt lat="43.7261" lon="5.94687">
        <ele>474.8</ele>
        <time>2023-11-15T12:45:19+01:00</time>
      </trkpt>
      <trkpt lat="43.72606" lon="5.94698">
        <ele>475.7</ele>
        <time>2023-11-15T12:45:28+01:00</time>
      </trkpt>
      <trkpt lat="43.72601" lon="5.94709">
        <ele>476.9</ele>
        <time>2023-11-15T12:45:37+01:00</time>
      </trkpt>
      <trkpt lat="43.72596" lon="5.94721">
        <ele>477.9</ele>
        <time>2023-11-15T12:45:48+01:00</time>
      </trkpt>
      <trkpt lat="43.7259" lon="5.94732">
        <ele>479.1</ele>
        <time>2023-11-15T12:45:58+01:00</time>
      </trkpt>
      <trkpt lat="43.72586" lon="5.94743">
        <ele>480.3</ele>
        <time>2023-11-15T12:46:07+01:00</time>
      </trkpt>
      <trkpt lat="43.7258" lon="5.94753">
        <ele>481</ele>
        <time>2023-11-15T12:46:16+01:00</time>
      </trkpt>
      <trkpt lat="43.72573" lon="5.94762">
        <ele>481</ele>
        <time>2023-11-15T12:46:25+01:00</time>
      </trkpt>
      <trkpt lat="43.72567" lon="5.94771">
        <ele>481</ele>
        <time>2023-11-15T12:46:35+01:00</time>
      </trkpt>
      <trkpt lat="43.72564" lon="5.94784">
        <ele>481.8</ele>
        <time>2023-11-15T12:46:44+01:00</time>
      </trkpt>
      <trkpt lat="43.7256" lon="5.94796">
        <ele>482.9</ele>
        <time>2023-11-15T12:46:56+01:00</time>
      </trkpt>
      <trkpt lat="43.72559" lon="5.94809">
        <ele>484.2</ele>
        <time>2023-11-15T12:47:05+01:00</time>
      </trkpt>
      <trkpt lat="43.72558" lon="5.94823">
        <ele>485.1</ele>
        <time>2023-11-15T12:47:16+01:00</time>
      </trkpt>
      <trkpt lat="43.72557" lon="5.94836">
        <ele>485.9</ele>
        <time>2023-11-15T12:47:26+01:00</time>
      </trkpt>
      <trkpt lat="43.72553" lon="5.94848">
        <ele>486.8</ele>
        <time>2023-11-15T12:47:40+01:00</time>
      </trkpt>
      <trkpt lat="43.72548" lon="5.94859">
        <ele>487.9</ele>
        <time>2023-11-15T12:47:50+01:00</time>
      </trkpt>
      <trkpt lat="43.72547" lon="5.94872">
        <ele>488.1</ele>
        <time>2023-11-15T12:47:59+01:00</time>
      </trkpt>
      <trkpt lat="43.72544" lon="5.94885">
        <ele>488.5</ele>
        <time>2023-11-15T12:48:07+01:00</time>
      </trkpt>
      <trkpt lat="43.72542" lon="5.94897">
        <ele>488.8</ele>
        <time>2023-11-15T12:48:16+01:00</time>
      </trkpt>
      <trkpt lat="43.72539" lon="5.9491">
        <ele>489.2</ele>
        <time>2023-11-15T12:48:24+01:00</time>
      </trkpt>
      <trkpt lat="43.72534" lon="5.94921">
        <ele>489.4</ele>
        <time>2023-11-15T12:48:31+01:00</time>
      </trkpt>
      <trkpt lat="43.72531" lon="5.94933">
        <ele>488.9</ele>
        <time>2023-11-15T12:48:41+01:00</time>
      </trkpt>
      <trkpt lat="43.72526" lon="5.94943">
        <ele>488.4</ele>
        <time>2023-11-15T12:48:51+01:00</time>
      </trkpt>
      <trkpt lat="43.7252" lon="5.94954">
        <ele>487.5</ele>
        <time>2023-11-15T12:48:59+01:00</time>
      </trkpt>
      <trkpt lat="43.72513" lon="5.94963">
        <ele>486.7</ele>
        <time>2023-11-15T12:49:08+01:00</time>
      </trkpt>
      <trkpt lat="43.72505" lon="5.94969">
        <ele>486.2</ele>
        <time>2023-11-15T12:49:19+01:00</time>
      </trkpt>
      <trkpt lat="43.72496" lon="5.94975">
        <ele>485.1</ele>
        <time>2023-11-15T12:49:29+01:00</time>
      </trkpt>
      <trkpt lat="43.72488" lon="5.94982">
        <ele>483.1</ele>
        <time>2023-11-15T12:49:37+01:00</time>
      </trkpt>
      <trkpt lat="43.72479" lon="5.9498">
        <ele>482.9</ele>
        <time>2023-11-15T12:49:47+01:00</time>
      </trkpt>
      <trkpt lat="43.7247" lon="5.94975">
        <ele>483.1</ele>
        <time>2023-11-15T12:49:55+01:00</time>
      </trkpt>
      <trkpt lat="43.72462" lon="5.94972">
        <ele>482.2</ele>
        <time>2023-11-15T12:50:02+01:00</time>
      </trkpt>
      <trkpt lat="43.72453" lon="5.94967">
        <ele>481.3</ele>
        <time>2023-11-15T12:50:12+01:00</time>
      </trkpt>
      <trkpt lat="43.72444" lon="5.94961">
        <ele>480.6</ele>
        <time>2023-11-15T12:50:20+01:00</time>
      </trkpt>
      <trkpt lat="43.72436" lon="5.94957">
        <ele>479.4</ele>
        <time>2023-11-15T12:50:30+01:00</time>
      </trkpt>
      <trkpt lat="43.72427" lon="5.94952">
        <ele>478.3</ele>
        <time>2023-11-15T12:50:40+01:00</time>
      </trkpt>
      <trkpt lat="43.72417" lon="5.94949">
        <ele>476.6</ele>
        <time>2023-11-15T12:50:49+01:00</time>
      </trkpt>
      <trkpt lat="43.72408" lon="5.94944">
        <ele>476.5</ele>
        <time>2023-11-15T12:51:01+01:00</time>
      </trkpt>
      <trkpt lat="43.72399" lon="5.94941">
        <ele>476.3</ele>
        <time>2023-11-15T12:51:09+01:00</time>
      </trkpt>
      <trkpt lat="43.7239" lon="5.94941">
        <ele>475.5</ele>
        <time>2023-11-15T12:51:17+01:00</time>
      </trkpt>
      <trkpt lat="43.72382" lon="5.94947">
        <ele>476.3</ele>
        <time>2023-11-15T12:51:29+01:00</time>
      </trkpt>
      <trkpt lat="43.72384" lon="5.9496">
        <ele>475.8</ele>
        <time>2023-11-15T12:51:39+01:00</time>
      </trkpt>
      <trkpt lat="43.72388" lon="5.94972">
        <ele>474.5</ele>
        <time>2023-11-15T12:51:48+01:00</time>
      </trkpt>
      <trkpt lat="43.72389" lon="5.94986">
        <ele>475</ele>
        <time>2023-11-15T12:51:57+01:00</time>
      </trkpt>
      <trkpt lat="43.72392" lon="5.94998">
        <ele>475.4</ele>
        <time>2023-11-15T12:52:04+01:00</time>
      </trkpt>
      <trkpt lat="43.72393" lon="5.95012">
        <ele>476.1</ele>
        <time>2023-11-15T12:52:13+01:00</time>
      </trkpt>
      <trkpt lat="43.72395" lon="5.95025">
        <ele>476.3</ele>
        <time>2023-11-15T12:52:21+01:00</time>
      </trkpt>
      <trkpt lat="43.72398" lon="5.95037">
        <ele>475.4</ele>
        <time>2023-11-15T12:52:31+01:00</time>
      </trkpt>
      <trkpt lat="43.72398" lon="5.9505">
        <ele>475</ele>
        <time>2023-11-15T12:52:38+01:00</time>
      </trkpt>
      <trkpt lat="43.72397" lon="5.95064">
        <ele>475.3</ele>
        <time>2023-11-15T12:52:48+01:00</time>
      </trkpt>
      <trkpt lat="43.72404" lon="5.95075">
        <ele>475.3</ele>
        <time>2023-11-15T12:52:58+01:00</time>
      </trkpt>
      <trkpt lat="43.7241" lon="5.95086">
        <ele>475.8</ele>
        <time>2023-11-15T12:53:07+01:00</time>
      </trkpt>
      <trkpt lat="43.72417" lon="5.95094">
        <ele>476.4</ele>
        <time>2023-11-15T12:53:16+01:00</time>
      </trkpt>
      <trkpt lat="43.72425" lon="5.95103">
        <ele>476.1</ele>
        <time>2023-11-15T12:53:26+01:00</time>
      </trkpt>
      <trkpt lat="43.72431" lon="5.95115">
        <ele>477.2</ele>
        <time>2023-11-15T12:53:36+01:00</time>
      </trkpt>
      <trkpt lat="43.72437" lon="5.95124">
        <ele>478.3</ele>
        <time>2023-11-15T12:53:44+01:00</time>
      </trkpt>
      <trkpt lat="43.72444" lon="5.95131">
        <ele>479</ele>
        <time>2023-11-15T12:53:52+01:00</time>
      </trkpt>
      <trkpt lat="43.72454" lon="5.95136">
        <ele>478.6</ele>
        <time>2023-11-15T12:53:59+01:00</time>
      </trkpt>
      <trkpt lat="43.72459" lon="5.95147">
        <ele>480</ele>
        <time>2023-11-15T12:54:10+01:00</time>
      </trkpt>
      <trkpt lat="43.72467" lon="5.95154">
        <ele>480.2</ele>
        <time>2023-11-15T12:54:19+01:00</time>
      </trkpt>
      <trkpt lat="43.72473" lon="5.95167">
        <ele>481.9</ele>
        <time>2023-11-15T12:54:28+01:00</time>
      </trkpt>
      <trkpt lat="43.7248" lon="5.95176">
        <ele>481.7</ele>
        <time>2023-11-15T12:54:37+01:00</time>
      </trkpt>
      <trkpt lat="43.72485" lon="5.95186">
        <ele>482.1</ele>
        <time>2023-11-15T12:54:46+01:00</time>
      </trkpt>
      <trkpt lat="43.7249" lon="5.95198">
        <ele>482.7</ele>
        <time>2023-11-15T12:54:54+01:00</time>
      </trkpt>
      <trkpt lat="43.72491" lon="5.95211">
        <ele>483.8</ele>
        <time>2023-11-15T12:55:02+01:00</time>
      </trkpt>
      <trkpt lat="43.7249" lon="5.95225">
        <ele>484.8</ele>
        <time>2023-11-15T12:55:12+01:00</time>
      </trkpt>
      <trkpt lat="43.72492" lon="5.95239">
        <ele>485.2</ele>
        <time>2023-11-15T12:55:21+01:00</time>
      </trkpt>
      <trkpt lat="43.72492" lon="5.95226">
        <ele>484.7</ele>
        <time>2023-11-15T12:57:22+01:00</time>
      </trkpt>
      <trkpt lat="43.72493" lon="5.95246">
        <ele>485.4</ele>
        <time>2023-11-15T12:57:23+01:00</time>
      </trkpt>
      <trkpt lat="43.72502" lon="5.95249">
        <ele>484.8</ele>
        <time>2023-11-15T13:00:35+01:00</time>
      </trkpt>
      <trkpt lat="43.72508" lon="5.95259">
        <ele>484.5</ele>
        <time>2023-11-15T13:00:44+01:00</time>
      </trkpt>
      <trkpt lat="43.72514" lon="5.95269">
        <ele>484.3</ele>
        <time>2023-11-15T13:00:52+01:00</time>
      </trkpt>
      <trkpt lat="43.72518" lon="5.95282">
        <ele>484.4</ele>
        <time>2023-11-15T13:01:01+01:00</time>
      </trkpt>
      <trkpt lat="43.72523" lon="5.95293">
        <ele>484.2</ele>
        <time>2023-11-15T13:01:10+01:00</time>
      </trkpt>
      <trkpt lat="43.72527" lon="5.95305">
        <ele>484</ele>
        <time>2023-11-15T13:01:19+01:00</time>
      </trkpt>
      <trkpt lat="43.72534" lon="5.95316">
        <ele>483.8</ele>
        <time>2023-11-15T13:01:29+01:00</time>
      </trkpt>
      <trkpt lat="43.72534" lon="5.9533">
        <ele>483.8</ele>
        <time>2023-11-15T13:01:37+01:00</time>
      </trkpt>
      <trkpt lat="43.72535" lon="5.95343">
        <ele>483.5</ele>
        <time>2023-11-15T13:01:45+01:00</time>
      </trkpt>
      <trkpt lat="43.72535" lon="5.95356">
        <ele>483.1</ele>
        <time>2023-11-15T13:01:52+01:00</time>
      </trkpt>
      <trkpt lat="43.72538" lon="5.95368">
        <ele>483</ele>
        <time>2023-11-15T13:02:00+01:00</time>
      </trkpt>
      <trkpt lat="43.72539" lon="5.95381">
        <ele>483</ele>
        <time>2023-11-15T13:02:25+01:00</time>
      </trkpt>
      <trkpt lat="43.72544" lon="5.95393">
        <ele>482.9</ele>
        <time>2023-11-15T13:02:37+01:00</time>
      </trkpt>
      <trkpt lat="43.72549" lon="5.95404">
        <ele>482.5</ele>
        <time>2023-11-15T13:02:44+01:00</time>
      </trkpt>
      <trkpt lat="43.72555" lon="5.95417">
        <ele>482</ele>
        <time>2023-11-15T13:02:52+01:00</time>
      </trkpt>
      <trkpt lat="43.7256" lon="5.95427">
        <ele>482.1</ele>
        <time>2023-11-15T13:03:01+01:00</time>
      </trkpt>
      <trkpt lat="43.72564" lon="5.95438">
        <ele>482.3</ele>
        <time>2023-11-15T13:03:09+01:00</time>
      </trkpt>
      <trkpt lat="43.72568" lon="5.95449">
        <ele>482.4</ele>
        <time>2023-11-15T13:03:16+01:00</time>
      </trkpt>
      <trkpt lat="43.72575" lon="5.95459">
        <ele>482.5</ele>
        <time>2023-11-15T13:03:25+01:00</time>
      </trkpt>
      <trkpt lat="43.7258" lon="5.95471">
        <ele>482.8</ele>
        <time>2023-11-15T13:03:35+01:00</time>
      </trkpt>
      <trkpt lat="43.72585" lon="5.95483">
        <ele>482.6</ele>
        <time>2023-11-15T13:03:45+01:00</time>
      </trkpt>
      <trkpt lat="43.72587" lon="5.95495">
        <ele>482.2</ele>
        <time>2023-11-15T13:03:53+01:00</time>
      </trkpt>
      <trkpt lat="43.72593" lon="5.95505">
        <ele>481.7</ele>
        <time>2023-11-15T13:04:03+01:00</time>
      </trkpt>
      <trkpt lat="43.72596" lon="5.95517">
        <ele>481</ele>
        <time>2023-11-15T13:04:11+01:00</time>
      </trkpt>
      <trkpt lat="43.72596" lon="5.95531">
        <ele>480.2</ele>
        <time>2023-11-15T13:04:20+01:00</time>
      </trkpt>
      <trkpt lat="43.726" lon="5.95543">
        <ele>479.3</ele>
        <time>2023-11-15T13:04:29+01:00</time>
      </trkpt>
      <trkpt lat="43.72609" lon="5.95548">
        <ele>479.4</ele>
        <time>2023-11-15T13:04:36+01:00</time>
      </trkpt>
      <trkpt lat="43.72616" lon="5.95555">
        <ele>479.2</ele>
        <time>2023-11-15T13:04:46+01:00</time>
      </trkpt>
      <trkpt lat="43.72624" lon="5.95565">
        <ele>478.8</ele>
        <time>2023-11-15T13:04:54+01:00</time>
      </trkpt>
      <trkpt lat="43.72628" lon="5.95576">
        <ele>478.2</ele>
        <time>2023-11-15T13:05:03+01:00</time>
      </trkpt>
      <trkpt lat="43.72633" lon="5.95588">
        <ele>477.4</ele>
        <time>2023-11-15T13:05:13+01:00</time>
      </trkpt>
      <trkpt lat="43.72638" lon="5.95599">
        <ele>476.9</ele>
        <time>2023-11-15T13:05:22+01:00</time>
      </trkpt>
      <trkpt lat="43.72642" lon="5.95611">
        <ele>476.3</ele>
        <time>2023-11-15T13:05:31+01:00</time>
      </trkpt>
      <trkpt lat="43.72644" lon="5.95623">
        <ele>474.9</ele>
        <time>2023-11-15T13:05:41+01:00</time>
      </trkpt>
      <trkpt lat="43.72652" lon="5.95628">
        <ele>474.8</ele>
        <time>2023-11-15T13:05:50+01:00</time>
      </trkpt>
      <trkpt lat="43.72661" lon="5.95634">
        <ele>474.4</ele>
        <time>2023-11-15T13:06:00+01:00</time>
      </trkpt>
      <trkpt lat="43.72671" lon="5.95636">
        <ele>474.3</ele>
        <time>2023-11-15T13:06:08+01:00</time>
      </trkpt>
      <trkpt lat="43.7268" lon="5.95639">
        <ele>473.6</ele>
        <time>2023-11-15T13:06:17+01:00</time>
      </trkpt>
      <trkpt lat="43.72689" lon="5.95643">
        <ele>472.6</ele>
        <time>2023-11-15T13:06:27+01:00</time>
      </trkpt>
      <trkpt lat="43.72698" lon="5.95647">
        <ele>471.9</ele>
        <time>2023-11-15T13:06:37+01:00</time>
      </trkpt>
      <trkpt lat="43.72705" lon="5.95654">
        <ele>471.2</ele>
        <time>2023-11-15T13:06:46+01:00</time>
      </trkpt>
      <trkpt lat="43.72715" lon="5.95657">
        <ele>471.4</ele>
        <time>2023-11-15T13:06:57+01:00</time>
      </trkpt>
      <trkpt lat="43.72724" lon="5.95656">
        <ele>471.9</ele>
        <time>2023-11-15T13:07:07+01:00</time>
      </trkpt>
      <trkpt lat="43.72733" lon="5.95653">
        <ele>472.6</ele>
        <time>2023-11-15T13:07:16+01:00</time>
      </trkpt>
      <trkpt lat="43.72741" lon="5.95658">
        <ele>472.8</ele>
        <time>2023-11-15T13:07:24+01:00</time>
      </trkpt>
      <trkpt lat="43.72751" lon="5.95659">
        <ele>473.3</ele>
        <time>2023-11-15T13:07:34+01:00</time>
      </trkpt>
      <trkpt lat="43.7276" lon="5.95658">
        <ele>473.8</ele>
        <time>2023-11-15T13:07:44+01:00</time>
      </trkpt>
      <trkpt lat="43.72769" lon="5.9566">
        <ele>474.1</ele>
        <time>2023-11-15T13:07:53+01:00</time>
      </trkpt>
      <trkpt lat="43.72779" lon="5.95659">
        <ele>474.6</ele>
        <time>2023-11-15T13:08:05+01:00</time>
      </trkpt>
      <trkpt lat="43.72789" lon="5.9566">
        <ele>474.6</ele>
        <time>2023-11-15T13:08:13+01:00</time>
      </trkpt>
      <trkpt lat="43.72798" lon="5.95663">
        <ele>474.4</ele>
        <time>2023-11-15T13:08:22+01:00</time>
      </trkpt>
      <trkpt lat="43.72808" lon="5.95667">
        <ele>474</ele>
        <time>2023-11-15T13:08:32+01:00</time>
      </trkpt>
      <trkpt lat="43.72816" lon="5.95673">
        <ele>473.6</ele>
        <time>2023-11-15T13:08:41+01:00</time>
      </trkpt>
      <trkpt lat="43.72825" lon="5.95676">
        <ele>473.2</ele>
        <time>2023-11-15T13:08:49+01:00</time>
      </trkpt>
      <trkpt lat="43.72834" lon="5.95677">
        <ele>472.9</ele>
        <time>2023-11-15T13:08:58+01:00</time>
      </trkpt>
      <trkpt lat="43.72843" lon="5.9568">
        <ele>471.9</ele>
        <time>2023-11-15T13:09:08+01:00</time>
      </trkpt>
      <trkpt lat="43.72852" lon="5.9568">
        <ele>471.1</ele>
        <time>2023-11-15T13:09:16+01:00</time>
      </trkpt>
      <trkpt lat="43.72861" lon="5.95686">
        <ele>469.9</ele>
        <time>2023-11-15T13:09:26+01:00</time>
      </trkpt>
      <trkpt lat="43.72872" lon="5.95687">
        <ele>469.7</ele>
        <time>2023-11-15T13:09:38+01:00</time>
      </trkpt>
      <trkpt lat="43.72881" lon="5.95691">
        <ele>469.3</ele>
        <time>2023-11-15T13:09:47+01:00</time>
      </trkpt>
      <trkpt lat="43.7289" lon="5.95695">
        <ele>469</ele>
        <time>2023-11-15T13:09:55+01:00</time>
      </trkpt>
      <trkpt lat="43.72899" lon="5.95694">
        <ele>469</ele>
        <time>2023-11-15T13:10:03+01:00</time>
      </trkpt>
      <trkpt lat="43.72908" lon="5.95694">
        <ele>469.1</ele>
        <time>2023-11-15T13:10:11+01:00</time>
      </trkpt>
      <trkpt lat="43.72918" lon="5.95693">
        <ele>469</ele>
        <time>2023-11-15T13:10:20+01:00</time>
      </trkpt>
      <trkpt lat="43.72928" lon="5.95694">
        <ele>468.3</ele>
        <time>2023-11-15T13:10:30+01:00</time>
      </trkpt>
      <trkpt lat="43.72936" lon="5.957">
        <ele>466.8</ele>
        <time>2023-11-15T13:10:38+01:00</time>
      </trkpt>
      <trkpt lat="43.72945" lon="5.95705">
        <ele>465.4</ele>
        <time>2023-11-15T13:10:49+01:00</time>
      </trkpt>
      <trkpt lat="43.72954" lon="5.95708">
        <ele>464.6</ele>
        <time>2023-11-15T13:10:59+01:00</time>
      </trkpt>
      <trkpt lat="43.72961" lon="5.95715">
        <ele>463</ele>
        <time>2023-11-15T13:11:09+01:00</time>
      </trkpt>
      <trkpt lat="43.7296" lon="5.95728">
        <ele>460.8</ele>
        <time>2023-11-15T13:11:19+01:00</time>
      </trkpt>
      <trkpt lat="43.72956" lon="5.95741">
        <ele>458.7</ele>
        <time>2023-11-15T13:11:32+01:00</time>
      </trkpt>
      <trkpt lat="43.7295" lon="5.95751">
        <ele>456.8</ele>
        <time>2023-11-15T13:11:41+01:00</time>
      </trkpt>
      <trkpt lat="43.72943" lon="5.95759">
        <ele>455.8</ele>
        <time>2023-11-15T13:11:50+01:00</time>
      </trkpt>
      <trkpt lat="43.72936" lon="5.95768">
        <ele>454.4</ele>
        <time>2023-11-15T13:12:01+01:00</time>
      </trkpt>
      <trkpt lat="43.72929" lon="5.95777">
        <ele>453.1</ele>
        <time>2023-11-15T13:12:11+01:00</time>
      </trkpt>
      <trkpt lat="43.72921" lon="5.95784">
        <ele>452.3</ele>
        <time>2023-11-15T13:12:21+01:00</time>
      </trkpt>
      <trkpt lat="43.72912" lon="5.95788">
        <ele>452</ele>
        <time>2023-11-15T13:12:32+01:00</time>
      </trkpt>
      <trkpt lat="43.72904" lon="5.95797">
        <ele>451.1</ele>
        <time>2023-11-15T13:12:41+01:00</time>
      </trkpt>
      <trkpt lat="43.72897" lon="5.95806">
        <ele>450</ele>
        <time>2023-11-15T13:12:50+01:00</time>
      </trkpt>
      <trkpt lat="43.72894" lon="5.95817">
        <ele>448.4</ele>
        <time>2023-11-15T13:13:00+01:00</time>
      </trkpt>
      <trkpt lat="43.72887" lon="5.95827">
        <ele>447</ele>
        <time>2023-11-15T13:13:08+01:00</time>
      </trkpt>
      <trkpt lat="43.72879" lon="5.95832">
        <ele>447.3</ele>
        <time>2023-11-15T13:13:17+01:00</time>
      </trkpt>
      <trkpt lat="43.72873" lon="5.95844">
        <ele>446.5</ele>
        <time>2023-11-15T13:13:24+01:00</time>
      </trkpt>
      <trkpt lat="43.72868" lon="5.95856">
        <ele>445.4</ele>
        <time>2023-11-15T13:13:37+01:00</time>
      </trkpt>
      <trkpt lat="43.72869" lon="5.95869">
        <ele>444.3</ele>
        <time>2023-11-15T13:13:46+01:00</time>
      </trkpt>
      <trkpt lat="43.72865" lon="5.95881">
        <ele>443.6</ele>
        <time>2023-11-15T13:13:57+01:00</time>
      </trkpt>
      <trkpt lat="43.72861" lon="5.95892">
        <ele>442.5</ele>
        <time>2023-11-15T13:14:05+01:00</time>
      </trkpt>
      <trkpt lat="43.72854" lon="5.95901">
        <ele>441.8</ele>
        <time>2023-11-15T13:14:14+01:00</time>
      </trkpt>
      <trkpt lat="43.72845" lon="5.95906">
        <ele>441.7</ele>
        <time>2023-11-15T13:14:23+01:00</time>
      </trkpt>
      <trkpt lat="43.72834" lon="5.95912">
        <ele>441.6</ele>
        <time>2023-11-15T13:14:33+01:00</time>
      </trkpt>
      <trkpt lat="43.72825" lon="5.95916">
        <ele>440.9</ele>
        <time>2023-11-15T13:14:42+01:00</time>
      </trkpt>
      <trkpt lat="43.72816" lon="5.9592">
        <ele>439.9</ele>
        <time>2023-11-15T13:14:53+01:00</time>
      </trkpt>
      <trkpt lat="43.72808" lon="5.95925">
        <ele>439.2</ele>
        <time>2023-11-15T13:15:01+01:00</time>
      </trkpt>
      <trkpt lat="43.72799" lon="5.9593">
        <ele>439.1</ele>
        <time>2023-11-15T13:15:10+01:00</time>
      </trkpt>
      <trkpt lat="43.7279" lon="5.95937">
        <ele>438.7</ele>
        <time>2023-11-15T13:15:19+01:00</time>
      </trkpt>
      <trkpt lat="43.72792" lon="5.95949">
        <ele>437</ele>
        <time>2023-11-15T13:16:19+01:00</time>
      </trkpt>
      <trkpt lat="43.72801" lon="5.95948">
        <ele>436.8</ele>
        <time>2023-11-15T13:16:29+01:00</time>
      </trkpt>
      <trkpt lat="43.72811" lon="5.95946">
        <ele>436.6</ele>
        <time>2023-11-15T13:16:46+01:00</time>
      </trkpt>
      <trkpt lat="43.7282" lon="5.95946">
        <ele>436.3</ele>
        <time>2023-11-15T13:16:55+01:00</time>
      </trkpt>
      <trkpt lat="43.72829" lon="5.95948">
        <ele>435.7</ele>
        <time>2023-11-15T13:17:04+01:00</time>
      </trkpt>
      <trkpt lat="43.72839" lon="5.95946">
        <ele>435.9</ele>
        <time>2023-11-15T13:17:14+01:00</time>
      </trkpt>
      <trkpt lat="43.72843" lon="5.95956">
        <ele>434.6</ele>
        <time>2023-11-15T13:17:27+01:00</time>
      </trkpt>
      <trkpt lat="43.72853" lon="5.95957">
        <ele>434.9</ele>
        <time>2023-11-15T13:17:33+01:00</time>
      </trkpt>
      <trkpt lat="43.72863" lon="5.95959">
        <ele>434.8</ele>
        <time>2023-11-15T13:17:42+01:00</time>
      </trkpt>
      <trkpt lat="43.72872" lon="5.95962">
        <ele>433.4</ele>
        <time>2023-11-15T13:17:52+01:00</time>
      </trkpt>
      <trkpt lat="43.72879" lon="5.95973">
        <ele>431.3</ele>
        <time>2023-11-15T13:18:00+01:00</time>
      </trkpt>
      <trkpt lat="43.72884" lon="5.95985">
        <ele>428.8</ele>
        <time>2023-11-15T13:18:17+01:00</time>
      </trkpt>
      <trkpt lat="43.72892" lon="5.95991">
        <ele>427</ele>
        <time>2023-11-15T13:18:31+01:00</time>
      </trkpt>
      <trkpt lat="43.72901" lon="5.95987">
        <ele>426.6</ele>
        <time>2023-11-15T13:18:42+01:00</time>
      </trkpt>
      <trkpt lat="43.7291" lon="5.95992">
        <ele>424.8</ele>
        <time>2023-11-15T13:18:52+01:00</time>
      </trkpt>
      <trkpt lat="43.72917" lon="5.96">
        <ele>422.9</ele>
        <time>2023-11-15T13:19:01+01:00</time>
      </trkpt>
      <trkpt lat="43.72926" lon="5.96001">
        <ele>422.1</ele>
        <time>2023-11-15T13:19:14+01:00</time>
      </trkpt>
      <trkpt lat="43.72935" lon="5.95993">
        <ele>423</ele>
        <time>2023-11-15T13:19:23+01:00</time>
      </trkpt>
      <trkpt lat="43.72944" lon="5.95994">
        <ele>422.4</ele>
        <time>2023-11-15T13:19:35+01:00</time>
      </trkpt>
      <trkpt lat="43.72953" lon="5.95989">
        <ele>423</ele>
        <time>2023-11-15T13:19:45+01:00</time>
      </trkpt>
      <trkpt lat="43.72961" lon="5.95981">
        <ele>423.9</ele>
        <time>2023-11-15T13:19:53+01:00</time>
      </trkpt>
      <trkpt lat="43.7297" lon="5.95973">
        <ele>424.2</ele>
        <time>2023-11-15T13:20:01+01:00</time>
      </trkpt>
      <trkpt lat="43.7297" lon="5.95987">
        <ele>422.5</ele>
        <time>2023-11-15T13:20:30+01:00</time>
      </trkpt>
      <trkpt lat="43.72964" lon="5.95999">
        <ele>421.1</ele>
        <time>2023-11-15T13:20:45+01:00</time>
      </trkpt>
      <trkpt lat="43.72957" lon="5.96007">
        <ele>420.3</ele>
        <time>2023-11-15T13:20:55+01:00</time>
      </trkpt>
      <trkpt lat="43.72949" lon="5.96018">
        <ele>419.2</ele>
        <time>2023-11-15T13:21:04+01:00</time>
      </trkpt>
      <trkpt lat="43.72948" lon="5.9603">
        <ele>417.8</ele>
        <time>2023-11-15T13:21:17+01:00</time>
      </trkpt>
      <trkpt lat="43.72947" lon="5.96044">
        <ele>416.3</ele>
        <time>2023-11-15T13:21:28+01:00</time>
      </trkpt>
      <trkpt lat="43.72938" lon="5.9605">
        <ele>415.6</ele>
        <time>2023-11-15T13:21:38+01:00</time>
      </trkpt>
      <trkpt lat="43.72928" lon="5.96049">
        <ele>415.8</ele>
        <time>2023-11-15T13:21:45+01:00</time>
      </trkpt>
      <trkpt lat="43.72918" lon="5.96048">
        <ele>416.1</ele>
        <time>2023-11-15T13:22:04+01:00</time>
      </trkpt>
      <trkpt lat="43.72909" lon="5.9605">
        <ele>416.2</ele>
        <time>2023-11-15T13:22:13+01:00</time>
      </trkpt>
      <trkpt lat="43.729" lon="5.96051">
        <ele>416.3</ele>
        <time>2023-11-15T13:22:22+01:00</time>
      </trkpt>
      <trkpt lat="43.72909" lon="5.96055">
        <ele>415.4</ele>
        <time>2023-11-15T13:22:49+01:00</time>
      </trkpt>
      <trkpt lat="43.72917" lon="5.9606">
        <ele>414.4</ele>
        <time>2023-11-15T13:22:58+01:00</time>
      </trkpt>
      <trkpt lat="43.72927" lon="5.96059">
        <ele>414.5</ele>
        <time>2023-11-15T13:23:04+01:00</time>
      </trkpt>
      <trkpt lat="43.72936" lon="5.9606">
        <ele>414.4</ele>
        <time>2023-11-15T13:23:11+01:00</time>
      </trkpt>
      <trkpt lat="43.72944" lon="5.96067">
        <ele>413.4</ele>
        <time>2023-11-15T13:23:20+01:00</time>
      </trkpt>
      <trkpt lat="43.72955" lon="5.9607">
        <ele>412.9</ele>
        <time>2023-11-15T13:23:29+01:00</time>
      </trkpt>
      <trkpt lat="43.72953" lon="5.96082">
        <ele>411.1</ele>
        <time>2023-11-15T13:24:29+01:00</time>
      </trkpt>
      <trkpt lat="43.72963" lon="5.96082">
        <ele>411.1</ele>
        <time>2023-11-15T13:31:25+01:00</time>
      </trkpt>
      <trkpt lat="43.72973" lon="5.9608">
        <ele>411.5</ele>
        <time>2023-11-15T13:31:34+01:00</time>
      </trkpt>
      <trkpt lat="43.72982" lon="5.96082">
        <ele>411.2</ele>
        <time>2023-11-15T13:31:44+01:00</time>
      </trkpt>
      <trkpt lat="43.72991" lon="5.96087">
        <ele>410.6</ele>
        <time>2023-11-15T13:31:55+01:00</time>
      </trkpt>
      <trkpt lat="43.72999" lon="5.9609">
        <ele>410.2</ele>
        <time>2023-11-15T13:32:03+01:00</time>
      </trkpt>
      <trkpt lat="43.73008" lon="5.9609">
        <ele>410.2</ele>
        <time>2023-11-15T13:32:10+01:00</time>
      </trkpt>
      <trkpt lat="43.73016" lon="5.96096">
        <ele>409.4</ele>
        <time>2023-11-15T13:32:17+01:00</time>
      </trkpt>
      <trkpt lat="43.73023" lon="5.96104">
        <ele>408.1</ele>
        <time>2023-11-15T13:32:26+01:00</time>
      </trkpt>
      <trkpt lat="43.73032" lon="5.96109">
        <ele>407</ele>
        <time>2023-11-15T13:32:35+01:00</time>
      </trkpt>
      <trkpt lat="43.7304" lon="5.96113">
        <ele>405.9</ele>
        <time>2023-11-15T13:32:43+01:00</time>
      </trkpt>
      <trkpt lat="43.73049" lon="5.96113">
        <ele>405.2</ele>
        <time>2023-11-15T13:32:54+01:00</time>
      </trkpt>
      <trkpt lat="43.73059" lon="5.96117">
        <ele>403.8</ele>
        <time>2023-11-15T13:33:10+01:00</time>
      </trkpt>
      <trkpt lat="43.73067" lon="5.96109">
        <ele>403.7</ele>
        <time>2023-11-15T13:33:18+01:00</time>
      </trkpt>
      <trkpt lat="43.73077" lon="5.96106">
        <ele>403</ele>
        <time>2023-11-15T13:33:29+01:00</time>
      </trkpt>
      <trkpt lat="43.73086" lon="5.96105">
        <ele>402.3</ele>
        <time>2023-11-15T13:33:43+01:00</time>
      </trkpt>
      <trkpt lat="43.73096" lon="5.96106">
        <ele>401.8</ele>
        <time>2023-11-15T13:33:51+01:00</time>
      </trkpt>
      <trkpt lat="43.73107" lon="5.96107">
        <ele>401.2</ele>
        <time>2023-11-15T13:34:02+01:00</time>
      </trkpt>
      <trkpt lat="43.73115" lon="5.96113">
        <ele>399.6</ele>
        <time>2023-11-15T13:34:10+01:00</time>
      </trkpt>
      <trkpt lat="43.73125" lon="5.96113">
        <ele>399.5</ele>
        <time>2023-11-15T13:34:16+01:00</time>
      </trkpt>
      <trkpt lat="43.73133" lon="5.96119">
        <ele>398.1</ele>
        <time>2023-11-15T13:34:31+01:00</time>
      </trkpt>
      <trkpt lat="43.73142" lon="5.96123">
        <ele>396.8</ele>
        <time>2023-11-15T13:34:41+01:00</time>
      </trkpt>
      <trkpt lat="43.73151" lon="5.96124">
        <ele>396.3</ele>
        <time>2023-11-15T13:34:53+01:00</time>
      </trkpt>
      <trkpt lat="43.73161" lon="5.96127">
        <ele>395.2</ele>
        <time>2023-11-15T13:35:06+01:00</time>
      </trkpt>
      <trkpt lat="43.73168" lon="5.96134">
        <ele>392.6</ele>
        <time>2023-11-15T13:35:19+01:00</time>
      </trkpt>
      <trkpt lat="43.73178" lon="5.96135">
        <ele>392</ele>
        <time>2023-11-15T13:35:30+01:00</time>
      </trkpt>
      <trkpt lat="43.73186" lon="5.96138">
        <ele>390.6</ele>
        <time>2023-11-15T13:35:45+01:00</time>
      </trkpt>
      <trkpt lat="43.73194" lon="5.96147">
        <ele>388.3</ele>
        <time>2023-11-15T13:35:58+01:00</time>
      </trkpt>
      <trkpt lat="43.73203" lon="5.96153">
        <ele>387.1</ele>
        <time>2023-11-15T13:36:10+01:00</time>
      </trkpt>
      <trkpt lat="43.73212" lon="5.96159">
        <ele>386.1</ele>
        <time>2023-11-15T13:36:19+01:00</time>
      </trkpt>
      <trkpt lat="43.73223" lon="5.96161">
        <ele>386</ele>
        <time>2023-11-15T13:36:31+01:00</time>
      </trkpt>
      <trkpt lat="43.73233" lon="5.96162">
        <ele>385.4</ele>
        <time>2023-11-15T13:36:43+01:00</time>
      </trkpt>
      <trkpt lat="43.73242" lon="5.96163">
        <ele>384.8</ele>
        <time>2023-11-15T13:36:53+01:00</time>
      </trkpt>
      <trkpt lat="43.73251" lon="5.96169">
        <ele>383.7</ele>
        <time>2023-11-15T13:37:03+01:00</time>
      </trkpt>
      <trkpt lat="43.7326" lon="5.96172">
        <ele>382.6</ele>
        <time>2023-11-15T13:37:16+01:00</time>
      </trkpt>
      <trkpt lat="43.7327" lon="5.96174">
        <ele>381.7</ele>
        <time>2023-11-15T13:37:26+01:00</time>
      </trkpt>
      <trkpt lat="43.7328" lon="5.96177">
        <ele>380.7</ele>
        <time>2023-11-15T13:37:36+01:00</time>
      </trkpt>
      <trkpt lat="43.73281" lon="5.9619">
        <ele>379.3</ele>
        <time>2023-11-15T13:37:55+01:00</time>
      </trkpt>
      <trkpt lat="43.73273" lon="5.96198">
        <ele>378.8</ele>
        <time>2023-11-15T13:38:05+01:00</time>
      </trkpt>
      <trkpt lat="43.73281" lon="5.96191">
        <ele>379.2</ele>
        <time>2023-11-15T13:38:43+01:00</time>
      </trkpt>
      <trkpt lat="43.73285" lon="5.96179">
        <ele>380</ele>
        <time>2023-11-15T13:38:54+01:00</time>
      </trkpt>
      <trkpt lat="43.73294" lon="5.96181">
        <ele>378.9</ele>
        <time>2023-11-15T13:39:04+01:00</time>
      </trkpt>
      <trkpt lat="43.73304" lon="5.96183">
        <ele>378</ele>
        <time>2023-11-15T13:39:14+01:00</time>
      </trkpt>
      <trkpt lat="43.73313" lon="5.96188">
        <ele>376.9</ele>
        <time>2023-11-15T13:39:35+01:00</time>
      </trkpt>
      <trkpt lat="43.73322" lon="5.96192">
        <ele>376</ele>
        <time>2023-11-15T13:39:45+01:00</time>
      </trkpt>
      <trkpt lat="43.73331" lon="5.96191">
        <ele>375.4</ele>
        <time>2023-11-15T13:39:56+01:00</time>
      </trkpt>
      <trkpt lat="43.7334" lon="5.96196">
        <ele>374.6</ele>
        <time>2023-11-15T13:40:05+01:00</time>
      </trkpt>
      <trkpt lat="43.7335" lon="5.96193">
        <ele>374.4</ele>
        <time>2023-11-15T13:40:17+01:00</time>
      </trkpt>
      <trkpt lat="43.73359" lon="5.96189">
        <ele>374.1</ele>
        <time>2023-11-15T13:40:29+01:00</time>
      </trkpt>
      <trkpt lat="43.73368" lon="5.96194">
        <ele>373.5</ele>
        <time>2023-11-15T13:40:40+01:00</time>
      </trkpt>
      <trkpt lat="43.73377" lon="5.96194">
        <ele>372.8</ele>
        <time>2023-11-15T13:41:21+01:00</time>
      </trkpt>
      <trkpt lat="43.73385" lon="5.962">
        <ele>372</ele>
        <time>2023-11-15T13:41:33+01:00</time>
      </trkpt>
      <trkpt lat="43.73386" lon="5.96213">
        <ele>371.5</ele>
        <time>2023-11-15T13:41:52+01:00</time>
      </trkpt>
      <trkpt lat="43.73382" lon="5.96224">
        <ele>371.2</ele>
        <time>2023-11-15T13:42:01+01:00</time>
      </trkpt>
      <trkpt lat="43.73385" lon="5.96237">
        <ele>370.4</ele>
        <time>2023-11-15T13:42:11+01:00</time>
      </trkpt>
      <trkpt lat="43.73389" lon="5.96249">
        <ele>370.1</ele>
        <time>2023-11-15T13:42:19+01:00</time>
      </trkpt>
      <trkpt lat="43.73395" lon="5.96259">
        <ele>369.5</ele>
        <time>2023-11-15T13:42:28+01:00</time>
      </trkpt>
      <trkpt lat="43.73402" lon="5.96268">
        <ele>368.9</ele>
        <time>2023-11-15T13:42:36+01:00</time>
      </trkpt>
      <trkpt lat="43.73408" lon="5.96278">
        <ele>368.3</ele>
        <time>2023-11-15T13:42:44+01:00</time>
      </trkpt>
      <trkpt lat="43.73414" lon="5.96287">
        <ele>367.4</ele>
        <time>2023-11-15T13:42:52+01:00</time>
      </trkpt>
      <trkpt lat="43.7342" lon="5.96296">
        <ele>366.5</ele>
        <time>2023-11-15T13:43:08+01:00</time>
      </trkpt>
      <trkpt lat="43.73427" lon="5.96304">
        <ele>365.7</ele>
        <time>2023-11-15T13:43:26+01:00</time>
      </trkpt>
      <trkpt lat="43.73432" lon="5.96317">
        <ele>365.8</ele>
        <time>2023-11-15T13:43:41+01:00</time>
      </trkpt>
      <trkpt lat="43.73441" lon="5.96324">
        <ele>365.3</ele>
        <time>2023-11-15T13:43:52+01:00</time>
      </trkpt>
      <trkpt lat="43.7345" lon="5.96323">
        <ele>364.6</ele>
        <time>2023-11-15T13:44:01+01:00</time>
      </trkpt>
      <trkpt lat="43.73459" lon="5.9632">
        <ele>364</ele>
        <time>2023-11-15T13:44:09+01:00</time>
      </trkpt>
      <trkpt lat="43.73466" lon="5.96312">
        <ele>363.5</ele>
        <time>2023-11-15T13:44:18+01:00</time>
      </trkpt>
      <trkpt lat="43.73473" lon="5.96303">
        <ele>362.8</ele>
        <time>2023-11-15T13:44:27+01:00</time>
      </trkpt>
      <trkpt lat="43.73481" lon="5.96295">
        <ele>362</ele>
        <time>2023-11-15T13:44:36+01:00</time>
      </trkpt>
      <trkpt lat="43.73491" lon="5.96289">
        <ele>361</ele>
        <time>2023-11-15T13:44:51+01:00</time>
      </trkpt>
      <trkpt lat="43.73501" lon="5.96287">
        <ele>360.3</ele>
        <time>2023-11-15T13:44:59+01:00</time>
      </trkpt>
      <trkpt lat="43.7351" lon="5.96283">
        <ele>359.6</ele>
        <time>2023-11-15T13:45:09+01:00</time>
      </trkpt>
      <trkpt lat="43.73519" lon="5.96279">
        <ele>358.7</ele>
        <time>2023-11-15T13:45:19+01:00</time>
      </trkpt>
      <trkpt lat="43.73528" lon="5.96284">
        <ele>358.7</ele>
        <time>2023-11-15T13:45:28+01:00</time>
      </trkpt>
      <trkpt lat="43.73529" lon="5.96296">
        <ele>360</ele>
        <time>2023-11-15T13:48:46+01:00</time>
      </trkpt>
      <trkpt lat="43.73538" lon="5.96303">
        <ele>360.4</ele>
        <time>2023-11-15T13:48:53+01:00</time>
      </trkpt>
      <trkpt lat="43.73545" lon="5.96312">
        <ele>360.3</ele>
        <time>2023-11-15T13:49:03+01:00</time>
      </trkpt>
      <trkpt lat="43.7355" lon="5.96324">
        <ele>359.7</ele>
        <time>2023-11-15T13:49:12+01:00</time>
      </trkpt>
      <trkpt lat="43.73555" lon="5.96335">
        <ele>359</ele>
        <time>2023-11-15T13:49:26+01:00</time>
      </trkpt>
      <trkpt lat="43.73546" lon="5.96342">
        <ele>359.4</ele>
        <time>2023-11-15T14:17:00+01:00</time>
      </trkpt>
      <trkpt lat="43.73549" lon="5.9633">
        <ele>359.6</ele>
        <time>2023-11-15T14:17:34+01:00</time>
      </trkpt>
      <trkpt lat="43.73557" lon="5.96335">
        <ele>358.9</ele>
        <time>2023-11-15T14:17:55+01:00</time>
      </trkpt>
      <trkpt lat="43.73548" lon="5.96334">
        <ele>359.6</ele>
        <time>2023-11-15T14:21:32+01:00</time>
      </trkpt>
      <trkpt lat="43.73552" lon="5.96344">
        <ele>358.9</ele>
        <time>2023-11-15T14:22:35+01:00</time>
      </trkpt>
      <trkpt lat="43.73557" lon="5.96331">
        <ele>359</ele>
        <time>2023-11-15T14:22:52+01:00</time>
      </trkpt>
      <trkpt lat="43.73558" lon="5.96343">
        <ele>358.6</ele>
        <time>2023-11-15T14:24:16+01:00</time>
      </trkpt>
      <trkpt lat="43.7356" lon="5.96331">
        <ele>358.9</ele>
        <time>2023-11-15T14:33:27+01:00</time>
      </trkpt>
      <trkpt lat="43.73554" lon="5.9634">
        <ele>358.9</ele>
        <time>2023-11-15T14:40:42+01:00</time>
      </trkpt>
      <trkpt lat="43.73561" lon="5.96332">
        <ele>358.8</ele>
        <time>2023-11-15T14:48:03+01:00</time>
      </trkpt>
      <trkpt lat="43.73556" lon="5.96322">
        <ele>359.4</ele>
        <time>2023-11-15T14:49:18+01:00</time>
      </trkpt>
      <trkpt lat="43.73549" lon="5.96313">
        <ele>360</ele>
        <time>2023-11-15T14:49:26+01:00</time>
      </trkpt>
      <trkpt lat="43.73541" lon="5.96307">
        <ele>360.5</ele>
        <time>2023-11-15T14:49:35+01:00</time>
      </trkpt>
      <trkpt lat="43.73533" lon="5.96301">
        <ele>360.3</ele>
        <time>2023-11-15T14:49:44+01:00</time>
      </trkpt>
      <trkpt lat="43.73525" lon="5.96294">
        <ele>359.9</ele>
        <time>2023-11-15T14:49:53+01:00</time>
      </trkpt>
      <trkpt lat="43.73516" lon="5.96291">
        <ele>359.9</ele>
        <time>2023-11-15T14:50:00+01:00</time>
      </trkpt>
      <trkpt lat="43.73506" lon="5.96293">
        <ele>360.3</ele>
        <time>2023-11-15T14:50:08+01:00</time>
      </trkpt>
      <trkpt lat="43.73496" lon="5.96292">
        <ele>360.8</ele>
        <time>2023-11-15T14:50:17+01:00</time>
      </trkpt>
      <trkpt lat="43.73487" lon="5.96298">
        <ele>361.6</ele>
        <time>2023-11-15T14:50:27+01:00</time>
      </trkpt>
      <trkpt lat="43.73479" lon="5.96303">
        <ele>362.4</ele>
        <time>2023-11-15T14:50:36+01:00</time>
      </trkpt>
      <trkpt lat="43.7347" lon="5.96309">
        <ele>363.1</ele>
        <time>2023-11-15T14:50:47+01:00</time>
      </trkpt>
      <trkpt lat="43.73462" lon="5.96316">
        <ele>363.7</ele>
        <time>2023-11-15T14:50:59+01:00</time>
      </trkpt>
      <trkpt lat="43.73455" lon="5.96324">
        <ele>364.2</ele>
        <time>2023-11-15T14:51:07+01:00</time>
      </trkpt>
      <trkpt lat="43.73446" lon="5.96324">
        <ele>364.9</ele>
        <time>2023-11-15T14:51:17+01:00</time>
      </trkpt>
      <trkpt lat="43.73437" lon="5.96323">
        <ele>365.6</ele>
        <time>2023-11-15T14:51:27+01:00</time>
      </trkpt>
      <trkpt lat="43.73431" lon="5.96313">
        <ele>365.8</ele>
        <time>2023-11-15T14:51:39+01:00</time>
      </trkpt>
      <trkpt lat="43.73425" lon="5.96303">
        <ele>365.8</ele>
        <time>2023-11-15T14:51:59+01:00</time>
      </trkpt>
      <trkpt lat="43.73418" lon="5.96294">
        <ele>366.7</ele>
        <time>2023-11-15T14:52:15+01:00</time>
      </trkpt>
      <trkpt lat="43.73411" lon="5.96285">
        <ele>367.7</ele>
        <time>2023-11-15T14:52:23+01:00</time>
      </trkpt>
      <trkpt lat="43.73406" lon="5.96275">
        <ele>368.5</ele>
        <time>2023-11-15T14:52:32+01:00</time>
      </trkpt>
      <trkpt lat="43.73398" lon="5.96266">
        <ele>369.1</ele>
        <time>2023-11-15T14:52:42+01:00</time>
      </trkpt>
      <trkpt lat="43.73391" lon="5.96257">
        <ele>369.7</ele>
        <time>2023-11-15T14:52:52+01:00</time>
      </trkpt>
      <trkpt lat="43.73385" lon="5.96248">
        <ele>370</ele>
        <time>2023-11-15T14:53:00+01:00</time>
      </trkpt>
      <trkpt lat="43.73377" lon="5.96241">
        <ele>370.2</ele>
        <time>2023-11-15T14:53:09+01:00</time>
      </trkpt>
      <trkpt lat="43.73368" lon="5.96233">
        <ele>370.8</ele>
        <time>2023-11-15T14:53:18+01:00</time>
      </trkpt>
      <trkpt lat="43.73361" lon="5.96223">
        <ele>371.9</ele>
        <time>2023-11-15T14:53:27+01:00</time>
      </trkpt>
      <trkpt lat="43.73353" lon="5.96216">
        <ele>372.7</ele>
        <time>2023-11-15T14:53:36+01:00</time>
      </trkpt>
      <trkpt lat="43.73345" lon="5.9621">
        <ele>373.5</ele>
        <time>2023-11-15T14:53:47+01:00</time>
      </trkpt>
      <trkpt lat="43.73338" lon="5.96202">
        <ele>374.3</ele>
        <time>2023-11-15T14:53:57+01:00</time>
      </trkpt>
      <trkpt lat="43.73328" lon="5.96196">
        <ele>375.2</ele>
        <time>2023-11-15T14:54:08+01:00</time>
      </trkpt>
      <trkpt lat="43.7332" lon="5.96192">
        <ele>376.2</ele>
        <time>2023-11-15T14:54:20+01:00</time>
      </trkpt>
      <trkpt lat="43.7331" lon="5.96191">
        <ele>376.9</ele>
        <time>2023-11-15T14:54:32+01:00</time>
      </trkpt>
      <trkpt lat="43.73301" lon="5.96188">
        <ele>377.8</ele>
        <time>2023-11-15T14:54:44+01:00</time>
      </trkpt>
      <trkpt lat="43.73291" lon="5.96189">
        <ele>378.6</ele>
        <time>2023-11-15T14:54:58+01:00</time>
      </trkpt>
      <trkpt lat="43.73283" lon="5.96183">
        <ele>379.8</ele>
        <time>2023-11-15T14:55:10+01:00</time>
      </trkpt>
      <trkpt lat="43.73274" lon="5.96177">
        <ele>381</ele>
        <time>2023-11-15T14:55:22+01:00</time>
      </trkpt>
      <trkpt lat="43.73265" lon="5.96174">
        <ele>382</ele>
        <time>2023-11-15T14:55:35+01:00</time>
      </trkpt>
      <trkpt lat="43.73256" lon="5.96175">
        <ele>382.4</ele>
        <time>2023-11-15T14:55:45+01:00</time>
      </trkpt>
      <trkpt lat="43.73246" lon="5.96173">
        <ele>383.3</ele>
        <time>2023-11-15T14:55:56+01:00</time>
      </trkpt>
      <trkpt lat="43.73237" lon="5.96167">
        <ele>384.4</ele>
        <time>2023-11-15T14:56:05+01:00</time>
      </trkpt>
      <trkpt lat="43.73227" lon="5.96167">
        <ele>384.8</ele>
        <time>2023-11-15T14:56:15+01:00</time>
      </trkpt>
      <trkpt lat="43.73218" lon="5.96164">
        <ele>385.3</ele>
        <time>2023-11-15T14:56:26+01:00</time>
      </trkpt>
      <trkpt lat="43.73221" lon="5.96152">
        <ele>387.7</ele>
        <time>2023-11-15T14:56:40+01:00</time>
      </trkpt>
      <trkpt lat="43.73228" lon="5.96143">
        <ele>388.8</ele>
        <time>2023-11-15T14:57:37+01:00</time>
      </trkpt>
      <trkpt lat="43.73236" lon="5.96135">
        <ele>389.7</ele>
        <time>2023-11-15T14:57:52+01:00</time>
      </trkpt>
      <trkpt lat="43.73245" lon="5.96131">
        <ele>389.8</ele>
        <time>2023-11-15T14:58:02+01:00</time>
      </trkpt>
      <trkpt lat="43.73254" lon="5.96127">
        <ele>389.6</ele>
        <time>2023-11-15T14:58:12+01:00</time>
      </trkpt>
      <trkpt lat="43.73262" lon="5.96122">
        <ele>389.4</ele>
        <time>2023-11-15T14:58:24+01:00</time>
      </trkpt>
      <trkpt lat="43.73265" lon="5.96109">
        <ele>390.6</ele>
        <time>2023-11-15T14:58:36+01:00</time>
      </trkpt>
      <trkpt lat="43.73262" lon="5.96097">
        <ele>392.2</ele>
        <time>2023-11-15T14:58:46+01:00</time>
      </trkpt>
      <trkpt lat="43.73264" lon="5.96084">
        <ele>393</ele>
        <time>2023-11-15T14:58:55+01:00</time>
      </trkpt>
      <trkpt lat="43.7327" lon="5.96075">
        <ele>392.7</ele>
        <time>2023-11-15T14:59:03+01:00</time>
      </trkpt>
      <trkpt lat="43.73277" lon="5.96065">
        <ele>392.3</ele>
        <time>2023-11-15T14:59:12+01:00</time>
      </trkpt>
      <trkpt lat="43.73279" lon="5.96051">
        <ele>392.9</ele>
        <time>2023-11-15T14:59:22+01:00</time>
      </trkpt>
      <trkpt lat="43.73279" lon="5.96038">
        <ele>393.5</ele>
        <time>2023-11-15T14:59:31+01:00</time>
      </trkpt>
      <trkpt lat="43.73277" lon="5.96025">
        <ele>394</ele>
        <time>2023-11-15T14:59:43+01:00</time>
      </trkpt>
      <trkpt lat="43.73277" lon="5.96012">
        <ele>393.8</ele>
        <time>2023-11-15T14:59:54+01:00</time>
      </trkpt>
      <trkpt lat="43.73275" lon="5.95999">
        <ele>394</ele>
        <time>2023-11-15T15:00:03+01:00</time>
      </trkpt>
      <trkpt lat="43.73274" lon="5.95986">
        <ele>393.9</ele>
        <time>2023-11-15T15:00:13+01:00</time>
      </trkpt>
      <trkpt lat="43.73273" lon="5.95974">
        <ele>394</ele>
        <time>2023-11-15T15:00:22+01:00</time>
      </trkpt>
      <trkpt lat="43.73274" lon="5.95961">
        <ele>393.4</ele>
        <time>2023-11-15T15:00:31+01:00</time>
      </trkpt>
      <trkpt lat="43.73274" lon="5.95947">
        <ele>393.6</ele>
        <time>2023-11-15T15:00:40+01:00</time>
      </trkpt>
      <trkpt lat="43.73275" lon="5.95934">
        <ele>394.9</ele>
        <time>2023-11-15T15:00:51+01:00</time>
      </trkpt>
      <trkpt lat="43.73282" lon="5.95925">
        <ele>394.7</ele>
        <time>2023-11-15T15:00:59+01:00</time>
      </trkpt>
      <trkpt lat="43.73287" lon="5.95915">
        <ele>395.2</ele>
        <time>2023-11-15T15:01:08+01:00</time>
      </trkpt>
      <trkpt lat="43.73294" lon="5.95905">
        <ele>394.7</ele>
        <time>2023-11-15T15:01:19+01:00</time>
      </trkpt>
      <trkpt lat="43.73292" lon="5.95893">
        <ele>396.5</ele>
        <time>2023-11-15T15:01:31+01:00</time>
      </trkpt>
      <trkpt lat="43.7329" lon="5.95881">
        <ele>397.3</ele>
        <time>2023-11-15T15:01:42+01:00</time>
      </trkpt>
      <trkpt lat="43.73286" lon="5.95869">
        <ele>398.8</ele>
        <time>2023-11-15T15:01:54+01:00</time>
      </trkpt>
      <trkpt lat="43.73288" lon="5.95857">
        <ele>398.5</ele>
        <time>2023-11-15T15:02:02+01:00</time>
      </trkpt>
      <trkpt lat="43.7329" lon="5.95843">
        <ele>399.7</ele>
        <time>2023-11-15T15:02:14+01:00</time>
      </trkpt>
      <trkpt lat="43.73297" lon="5.95834">
        <ele>399.2</ele>
        <time>2023-11-15T15:02:23+01:00</time>
      </trkpt>
      <trkpt lat="43.73303" lon="5.95823">
        <ele>398.2</ele>
        <time>2023-11-15T15:02:32+01:00</time>
      </trkpt>
      <trkpt lat="43.73302" lon="5.9581">
        <ele>399.1</ele>
        <time>2023-11-15T15:02:44+01:00</time>
      </trkpt>
      <trkpt lat="43.73303" lon="5.95797">
        <ele>400.3</ele>
        <time>2023-11-15T15:02:57+01:00</time>
      </trkpt>
      <trkpt lat="43.73309" lon="5.95787">
        <ele>400.7</ele>
        <time>2023-11-15T15:03:11+01:00</time>
      </trkpt>
      <trkpt lat="43.73313" lon="5.95775">
        <ele>401</ele>
        <time>2023-11-15T15:03:21+01:00</time>
      </trkpt>
      <trkpt lat="43.73315" lon="5.95763">
        <ele>401.1</ele>
        <time>2023-11-15T15:03:33+01:00</time>
      </trkpt>
      <trkpt lat="43.73313" lon="5.95749">
        <ele>402.6</ele>
        <time>2023-11-15T15:03:44+01:00</time>
      </trkpt>
      <trkpt lat="43.73311" lon="5.95735">
        <ele>404.4</ele>
        <time>2023-11-15T15:03:57+01:00</time>
      </trkpt>
      <trkpt lat="43.73316" lon="5.95725">
        <ele>404.1</ele>
        <time>2023-11-15T15:04:09+01:00</time>
      </trkpt>
      <trkpt lat="43.73317" lon="5.95711">
        <ele>404.6</ele>
        <time>2023-11-15T15:04:21+01:00</time>
      </trkpt>
      <trkpt lat="43.7332" lon="5.95697">
        <ele>404.3</ele>
        <time>2023-11-15T15:04:31+01:00</time>
      </trkpt>
      <trkpt lat="43.73323" lon="5.95685">
        <ele>403.7</ele>
        <time>2023-11-15T15:04:42+01:00</time>
      </trkpt>
      <trkpt lat="43.73321" lon="5.95671">
        <ele>404.5</ele>
        <time>2023-11-15T15:04:52+01:00</time>
      </trkpt>
      <trkpt lat="43.73318" lon="5.95659">
        <ele>404.8</ele>
        <time>2023-11-15T15:05:00+01:00</time>
      </trkpt>
      <trkpt lat="43.73314" lon="5.95647">
        <ele>405</ele>
        <time>2023-11-15T15:05:14+01:00</time>
      </trkpt>
      <trkpt lat="43.73307" lon="5.95638">
        <ele>405.5</ele>
        <time>2023-11-15T15:05:23+01:00</time>
      </trkpt>
      <trkpt lat="43.73302" lon="5.95626">
        <ele>405.7</ele>
        <time>2023-11-15T15:05:32+01:00</time>
      </trkpt>
      <trkpt lat="43.73299" lon="5.95614">
        <ele>405.9</ele>
        <time>2023-11-15T15:05:40+01:00</time>
      </trkpt>
      <trkpt lat="43.73302" lon="5.95601">
        <ele>405.2</ele>
        <time>2023-11-15T15:05:49+01:00</time>
      </trkpt>
      <trkpt lat="43.73302" lon="5.95588">
        <ele>405.9</ele>
        <time>2023-11-15T15:06:00+01:00</time>
      </trkpt>
      <trkpt lat="43.73302" lon="5.95576">
        <ele>406.3</ele>
        <time>2023-11-15T15:06:08+01:00</time>
      </trkpt>
      <trkpt lat="43.73302" lon="5.95562">
        <ele>406.4</ele>
        <time>2023-11-15T15:06:18+01:00</time>
      </trkpt>
      <trkpt lat="43.733" lon="5.9555">
        <ele>406.6</ele>
        <time>2023-11-15T15:06:28+01:00</time>
      </trkpt>
      <trkpt lat="43.73298" lon="5.95537">
        <ele>406.8</ele>
        <time>2023-11-15T15:09:03+01:00</time>
      </trkpt>
      <trkpt lat="43.73296" lon="5.95525">
        <ele>406.3</ele>
        <time>2023-11-15T15:09:11+01:00</time>
      </trkpt>
      <trkpt lat="43.73293" lon="5.95513">
        <ele>404.9</ele>
        <time>2023-11-15T15:09:21+01:00</time>
      </trkpt>
      <trkpt lat="43.73284" lon="5.95505">
        <ele>406.9</ele>
        <time>2023-11-15T15:09:31+01:00</time>
      </trkpt>
      <trkpt lat="43.7328" lon="5.95494">
        <ele>407.5</ele>
        <time>2023-11-15T15:09:43+01:00</time>
      </trkpt>
      <trkpt lat="43.73276" lon="5.95483">
        <ele>407.7</ele>
        <time>2023-11-15T15:09:51+01:00</time>
      </trkpt>
      <trkpt lat="43.73274" lon="5.95471">
        <ele>407.1</ele>
        <time>2023-11-15T15:10:01+01:00</time>
      </trkpt>
      <trkpt lat="43.73272" lon="5.95458">
        <ele>407.3</ele>
        <time>2023-11-15T15:10:11+01:00</time>
      </trkpt>
      <trkpt lat="43.73269" lon="5.95445">
        <ele>407.7</ele>
        <time>2023-11-15T15:10:22+01:00</time>
      </trkpt>
      <trkpt lat="43.73265" lon="5.95434">
        <ele>408.6</ele>
        <time>2023-11-15T15:10:32+01:00</time>
      </trkpt>
      <trkpt lat="43.73264" lon="5.95421">
        <ele>408.5</ele>
        <time>2023-11-15T15:10:42+01:00</time>
      </trkpt>
      <trkpt lat="43.73263" lon="5.95408">
        <ele>408.3</ele>
        <time>2023-11-15T15:10:58+01:00</time>
      </trkpt>
      <trkpt lat="43.73265" lon="5.95396">
        <ele>407.2</ele>
        <time>2023-11-15T15:11:10+01:00</time>
      </trkpt>
      <trkpt lat="43.73262" lon="5.95383">
        <ele>406.6</ele>
        <time>2023-11-15T15:11:22+01:00</time>
      </trkpt>
      <trkpt lat="43.73257" lon="5.95373">
        <ele>407</ele>
        <time>2023-11-15T15:11:34+01:00</time>
      </trkpt>
      <trkpt lat="43.73257" lon="5.95359">
        <ele>405.4</ele>
        <time>2023-11-15T15:11:44+01:00</time>
      </trkpt>
      <trkpt lat="43.73255" lon="5.95346">
        <ele>404.4</ele>
        <time>2023-11-15T15:11:57+01:00</time>
      </trkpt>
      <trkpt lat="43.73249" lon="5.95335">
        <ele>404.3</ele>
        <time>2023-11-15T15:12:09+01:00</time>
      </trkpt>
      <trkpt lat="43.73248" lon="5.95322">
        <ele>402.1</ele>
        <time>2023-11-15T15:12:23+01:00</time>
      </trkpt>
      <trkpt lat="43.73249" lon="5.95309">
        <ele>399.7</ele>
        <time>2023-11-15T15:12:37+01:00</time>
      </trkpt>
      <trkpt lat="43.73251" lon="5.95296">
        <ele>397</ele>
        <time>2023-11-15T15:12:54+01:00</time>
      </trkpt>
      <trkpt lat="43.73254" lon="5.95284">
        <ele>394.9</ele>
        <time>2023-11-15T15:13:10+01:00</time>
      </trkpt>
      <trkpt lat="43.73256" lon="5.95271">
        <ele>392.6</ele>
        <time>2023-11-15T15:13:26+01:00</time>
      </trkpt>
      <trkpt lat="43.7326" lon="5.9526">
        <ele>390.6</ele>
        <time>2023-11-15T15:13:39+01:00</time>
      </trkpt>
      <trkpt lat="43.73261" lon="5.95247">
        <ele>388.5</ele>
        <time>2023-11-15T15:13:54+01:00</time>
      </trkpt>
      <trkpt lat="43.73264" lon="5.95235">
        <ele>386.6</ele>
        <time>2023-11-15T15:14:08+01:00</time>
      </trkpt>
      <trkpt lat="43.73261" lon="5.95223">
        <ele>382.8</ele>
        <time>2023-11-15T15:14:28+01:00</time>
      </trkpt>
      <trkpt lat="43.7326" lon="5.9521">
        <ele>380.4</ele>
        <time>2023-11-15T15:14:48+01:00</time>
      </trkpt>
      <trkpt lat="43.73254" lon="5.952">
        <ele>375.9</ele>
        <time>2023-11-15T15:15:35+01:00</time>
      </trkpt>
      <trkpt lat="43.73244" lon="5.95202">
        <ele>375.4</ele>
        <time>2023-11-15T15:15:54+01:00</time>
      </trkpt>
      <trkpt lat="43.7324" lon="5.9519">
        <ele>373.5</ele>
        <time>2023-11-15T15:16:20+01:00</time>
      </trkpt>
      <trkpt lat="43.73233" lon="5.9518">
        <ele>371</ele>
        <time>2023-11-15T15:16:38+01:00</time>
      </trkpt>
      <trkpt lat="43.73228" lon="5.95169">
        <ele>367</ele>
        <time>2023-11-15T15:16:51+01:00</time>
      </trkpt>
      <trkpt lat="43.73218" lon="5.9517">
        <ele>368</ele>
        <time>2023-11-15T15:17:06+01:00</time>
      </trkpt>
      <trkpt lat="43.73208" lon="5.95168">
        <ele>368.5</ele>
        <time>2023-11-15T15:19:15+01:00</time>
      </trkpt>
      <trkpt lat="43.73206" lon="5.95155">
        <ele>368.5</ele>
        <time>2023-11-15T15:19:25+01:00</time>
      </trkpt>
      <trkpt lat="43.73206" lon="5.95142">
        <ele>368.9</ele>
        <time>2023-11-15T15:19:35+01:00</time>
      </trkpt>
      <trkpt lat="43.73209" lon="5.9513">
        <ele>366.7</ele>
        <time>2023-11-15T15:19:47+01:00</time>
      </trkpt>
      <trkpt lat="43.7321" lon="5.95117">
        <ele>365.9</ele>
        <time>2023-11-15T15:19:58+01:00</time>
      </trkpt>
      <trkpt lat="43.73208" lon="5.95104">
        <ele>366</ele>
        <time>2023-11-15T15:20:08+01:00</time>
      </trkpt>
      <trkpt lat="43.73203" lon="5.95092">
        <ele>366.1</ele>
        <time>2023-11-15T15:23:11+01:00</time>
      </trkpt>
      <trkpt lat="43.73198" lon="5.9508">
        <ele>365</ele>
        <time>2023-11-15T15:23:20+01:00</time>
      </trkpt>
      <trkpt lat="43.7319" lon="5.95075">
        <ele>365.3</ele>
        <time>2023-11-15T15:23:29+01:00</time>
      </trkpt>
      <trkpt lat="43.73181" lon="5.95071">
        <ele>365.3</ele>
        <time>2023-11-15T15:23:40+01:00</time>
      </trkpt>
      <trkpt lat="43.73171" lon="5.95073">
        <ele>367</ele>
        <time>2023-11-15T15:23:49+01:00</time>
      </trkpt>
      <trkpt lat="43.73164" lon="5.95081">
        <ele>371</ele>
        <time>2023-11-15T15:23:59+01:00</time>
      </trkpt>
      <trkpt lat="43.73154" lon="5.95083">
        <ele>369.8</ele>
        <time>2023-11-15T15:24:10+01:00</time>
      </trkpt>
      <trkpt lat="43.73145" lon="5.95083">
        <ele>367.2</ele>
        <time>2023-11-15T15:24:19+01:00</time>
      </trkpt>
      <trkpt lat="43.73138" lon="5.95091">
        <ele>370.7</ele>
        <time>2023-11-15T15:24:26+01:00</time>
      </trkpt>
      <trkpt lat="43.73129" lon="5.95095">
        <ele>371.3</ele>
        <time>2023-11-15T15:24:34+01:00</time>
      </trkpt>
      <trkpt lat="43.73119" lon="5.95099">
        <ele>371</ele>
        <time>2023-11-15T15:24:46+01:00</time>
      </trkpt>
      <trkpt lat="43.7311" lon="5.95093">
        <ele>367.8</ele>
        <time>2023-11-15T15:24:57+01:00</time>
      </trkpt>
      <trkpt lat="43.73106" lon="5.95081">
        <ele>366.9</ele>
        <time>2023-11-15T15:25:04+01:00</time>
      </trkpt>
      <trkpt lat="43.73101" lon="5.95071">
        <ele>367.5</ele>
        <time>2023-11-15T15:25:14+01:00</time>
      </trkpt>
      <trkpt lat="43.73096" lon="5.95058">
        <ele>367.5</ele>
        <time>2023-11-15T15:25:22+01:00</time>
      </trkpt>
      <trkpt lat="43.73093" lon="5.95046">
        <ele>367.2</ele>
        <time>2023-11-15T15:25:32+01:00</time>
      </trkpt>
      <trkpt lat="43.73094" lon="5.95034">
        <ele>365.4</ele>
        <time>2023-11-15T15:25:44+01:00</time>
      </trkpt>
      <trkpt lat="43.73089" lon="5.95023">
        <ele>366.2</ele>
        <time>2023-11-15T15:25:54+01:00</time>
      </trkpt>
      <trkpt lat="43.73084" lon="5.95011">
        <ele>364.7</ele>
        <time>2023-11-15T15:26:03+01:00</time>
      </trkpt>
      <trkpt lat="43.7308" lon="5.94999">
        <ele>362.4</ele>
        <time>2023-11-15T15:26:12+01:00</time>
      </trkpt>
      <trkpt lat="43.73078" lon="5.94986">
        <ele>365</ele>
        <time>2023-11-15T15:26:20+01:00</time>
      </trkpt>
      <trkpt lat="43.73082" lon="5.94973">
        <ele>366.2</ele>
        <time>2023-11-15T15:26:37+01:00</time>
      </trkpt>
      <trkpt lat="43.73089" lon="5.94981">
        <ele>367.6</ele>
        <time>2023-11-15T15:26:48+01:00</time>
      </trkpt>
      <trkpt lat="43.73099" lon="5.94984">
        <ele>370.7</ele>
        <time>2023-11-15T15:26:59+01:00</time>
      </trkpt>
      <trkpt lat="43.7311" lon="5.94989">
        <ele>371.8</ele>
        <time>2023-11-15T15:27:06+01:00</time>
      </trkpt>
      <trkpt lat="43.73116" lon="5.94998">
        <ele>366.7</ele>
        <time>2023-11-15T15:27:18+01:00</time>
      </trkpt>
      <trkpt lat="43.73124" lon="5.95004">
        <ele>364.5</ele>
        <time>2023-11-15T15:27:32+01:00</time>
      </trkpt>
      <trkpt lat="43.73132" lon="5.95011">
        <ele>362.8</ele>
        <time>2023-11-15T15:27:46+01:00</time>
      </trkpt>
      <trkpt lat="43.73141" lon="5.9501">
        <ele>362.8</ele>
        <time>2023-11-15T15:28:02+01:00</time>
      </trkpt>
      <trkpt lat="43.73148" lon="5.95001">
        <ele>363.5</ele>
        <time>2023-11-15T15:28:12+01:00</time>
      </trkpt>
      <trkpt lat="43.73153" lon="5.94989">
        <ele>366</ele>
        <time>2023-11-15T15:28:22+01:00</time>
      </trkpt>
      <trkpt lat="43.73161" lon="5.94983">
        <ele>365.4</ele>
        <time>2023-11-15T15:28:35+01:00</time>
      </trkpt>
      <trkpt lat="43.73169" lon="5.94976">
        <ele>365.6</ele>
        <time>2023-11-15T15:28:45+01:00</time>
      </trkpt>
      <trkpt lat="43.73179" lon="5.94973">
        <ele>365.5</ele>
        <time>2023-11-15T15:28:55+01:00</time>
      </trkpt>
      <trkpt lat="43.73188" lon="5.94971">
        <ele>365.5</ele>
        <time>2023-11-15T15:29:03+01:00</time>
      </trkpt>
      <trkpt lat="43.73197" lon="5.94971">
        <ele>364.8</ele>
        <time>2023-11-15T15:29:15+01:00</time>
      </trkpt>
      <trkpt lat="43.73207" lon="5.94973">
        <ele>364.3</ele>
        <time>2023-11-15T15:29:26+01:00</time>
      </trkpt>
      <trkpt lat="43.73216" lon="5.94973">
        <ele>364.6</ele>
        <time>2023-11-15T15:29:34+01:00</time>
      </trkpt>
      <trkpt lat="43.73225" lon="5.94977">
        <ele>364.2</ele>
        <time>2023-11-15T15:29:44+01:00</time>
      </trkpt>
      <trkpt lat="43.73234" lon="5.9498">
        <ele>365.1</ele>
        <time>2023-11-15T15:29:55+01:00</time>
      </trkpt>
      <trkpt lat="43.73244" lon="5.94983">
        <ele>365.8</ele>
        <time>2023-11-15T15:30:05+01:00</time>
      </trkpt>
      <trkpt lat="43.73253" lon="5.94986">
        <ele>364.7</ele>
        <time>2023-11-15T15:30:16+01:00</time>
      </trkpt>
      <trkpt lat="43.73261" lon="5.9498">
        <ele>364.8</ele>
        <time>2023-11-15T15:30:31+01:00</time>
      </trkpt>
      <trkpt lat="43.73266" lon="5.94967">
        <ele>366.6</ele>
        <time>2023-11-15T15:30:42+01:00</time>
      </trkpt>
      <trkpt lat="43.73273" lon="5.94958">
        <ele>365.7</ele>
        <time>2023-11-15T15:30:53+01:00</time>
      </trkpt>
      <trkpt lat="43.7328" lon="5.9495">
        <ele>365</ele>
        <time>2023-11-15T15:31:00+01:00</time>
      </trkpt>
      <trkpt lat="43.73287" lon="5.9494">
        <ele>365.1</ele>
        <time>2023-11-15T15:31:08+01:00</time>
      </trkpt>
      <trkpt lat="43.73293" lon="5.94931">
        <ele>364.3</ele>
        <time>2023-11-15T15:31:17+01:00</time>
      </trkpt>
      <trkpt lat="43.73296" lon="5.94919">
        <ele>365.2</ele>
        <time>2023-11-15T15:31:29+01:00</time>
      </trkpt>
      <trkpt lat="43.73298" lon="5.94906">
        <ele>364.3</ele>
        <time>2023-11-15T15:31:40+01:00</time>
      </trkpt>
      <trkpt lat="43.73297" lon="5.94893">
        <ele>364.5</ele>
        <time>2023-11-15T15:31:51+01:00</time>
      </trkpt>
      <trkpt lat="43.73293" lon="5.94881">
        <ele>365</ele>
        <time>2023-11-15T15:31:59+01:00</time>
      </trkpt>
      <trkpt lat="43.73292" lon="5.94868">
        <ele>364.2</ele>
        <time>2023-11-15T15:32:11+01:00</time>
      </trkpt>
      <trkpt lat="43.73287" lon="5.94858">
        <ele>365.3</ele>
        <time>2023-11-15T15:32:19+01:00</time>
      </trkpt>
      <trkpt lat="43.73283" lon="5.94846">
        <ele>365.6</ele>
        <time>2023-11-15T15:32:32+01:00</time>
      </trkpt>
      <trkpt lat="43.73279" lon="5.94834">
        <ele>365.8</ele>
        <time>2023-11-15T15:32:42+01:00</time>
      </trkpt>
      <trkpt lat="43.73274" lon="5.94823">
        <ele>366.4</ele>
        <time>2023-11-15T15:32:50+01:00</time>
      </trkpt>
      <trkpt lat="43.7327" lon="5.94811">
        <ele>366.2</ele>
        <time>2023-11-15T15:32:59+01:00</time>
      </trkpt>
      <trkpt lat="43.73263" lon="5.94802">
        <ele>367</ele>
        <time>2023-11-15T15:33:08+01:00</time>
      </trkpt>
      <trkpt lat="43.73259" lon="5.94791">
        <ele>366.2</ele>
        <time>2023-11-15T15:33:19+01:00</time>
      </trkpt>
      <trkpt lat="43.73252" lon="5.94783">
        <ele>366.6</ele>
        <time>2023-11-15T15:33:28+01:00</time>
      </trkpt>
      <trkpt lat="43.73246" lon="5.94773">
        <ele>365.8</ele>
        <time>2023-11-15T15:33:38+01:00</time>
      </trkpt>
      <trkpt lat="43.73238" lon="5.94766">
        <ele>365</ele>
        <time>2023-11-15T15:33:46+01:00</time>
      </trkpt>
      <trkpt lat="43.7323" lon="5.94761">
        <ele>364.8</ele>
        <time>2023-11-15T15:33:56+01:00</time>
      </trkpt>
      <trkpt lat="43.73221" lon="5.94756">
        <ele>364.3</ele>
        <time>2023-11-15T15:34:05+01:00</time>
      </trkpt>
      <trkpt lat="43.73211" lon="5.94754">
        <ele>365.3</ele>
        <time>2023-11-15T15:34:16+01:00</time>
      </trkpt>
      <trkpt lat="43.73202" lon="5.94757">
        <ele>367.6</ele>
        <time>2023-11-15T15:34:27+01:00</time>
      </trkpt>
      <trkpt lat="43.73193" lon="5.94754">
        <ele>367.7</ele>
        <time>2023-11-15T15:34:40+01:00</time>
      </trkpt>
      <trkpt lat="43.73183" lon="5.94752">
        <ele>367.5</ele>
        <time>2023-11-15T15:34:49+01:00</time>
      </trkpt>
      <trkpt lat="43.73175" lon="5.94747">
        <ele>365.8</ele>
        <time>2023-11-15T15:34:57+01:00</time>
      </trkpt>
      <trkpt lat="43.73164" lon="5.94744">
        <ele>365.6</ele>
        <time>2023-11-15T15:35:07+01:00</time>
      </trkpt>
      <trkpt lat="43.73156" lon="5.94738">
        <ele>365.4</ele>
        <time>2023-11-15T15:35:17+01:00</time>
      </trkpt>
      <trkpt lat="43.73146" lon="5.94734">
        <ele>365.5</ele>
        <time>2023-11-15T15:35:28+01:00</time>
      </trkpt>
      <trkpt lat="43.73137" lon="5.9473">
        <ele>365.5</ele>
        <time>2023-11-15T15:35:38+01:00</time>
      </trkpt>
      <trkpt lat="43.73127" lon="5.94728">
        <ele>365.7</ele>
        <time>2023-11-15T15:35:46+01:00</time>
      </trkpt>
      <trkpt lat="43.73118" lon="5.94722">
        <ele>364.9</ele>
        <time>2023-11-15T15:35:54+01:00</time>
      </trkpt>
      <trkpt lat="43.73109" lon="5.9472">
        <ele>365.8</ele>
        <time>2023-11-15T15:36:04+01:00</time>
      </trkpt>
      <trkpt lat="43.73099" lon="5.94718">
        <ele>366.5</ele>
        <time>2023-11-15T15:36:12+01:00</time>
      </trkpt>
      <trkpt lat="43.73089" lon="5.94716">
        <ele>367.3</ele>
        <time>2023-11-15T15:36:20+01:00</time>
      </trkpt>
      <trkpt lat="43.73079" lon="5.94712">
        <ele>367.3</ele>
        <time>2023-11-15T15:36:29+01:00</time>
      </trkpt>
      <trkpt lat="43.73069" lon="5.94713">
        <ele>368.1</ele>
        <time>2023-11-15T15:36:40+01:00</time>
      </trkpt>
      <trkpt lat="43.73059" lon="5.94711">
        <ele>368.1</ele>
        <time>2023-11-15T15:36:48+01:00</time>
      </trkpt>
      <trkpt lat="43.7305" lon="5.94705">
        <ele>367.6</ele>
        <time>2023-11-15T15:36:57+01:00</time>
      </trkpt>
      <trkpt lat="43.73041" lon="5.94699">
        <ele>366.9</ele>
        <time>2023-11-15T15:37:06+01:00</time>
      </trkpt>
      <trkpt lat="43.73032" lon="5.94692">
        <ele>366</ele>
        <time>2023-11-15T15:37:14+01:00</time>
      </trkpt>
      <trkpt lat="43.73023" lon="5.94687">
        <ele>366.5</ele>
        <time>2023-11-15T15:37:24+01:00</time>
      </trkpt>
      <trkpt lat="43.73016" lon="5.94679">
        <ele>366.3</ele>
        <time>2023-11-15T15:37:31+01:00</time>
      </trkpt>
      <trkpt lat="43.73007" lon="5.94675">
        <ele>367.2</ele>
        <time>2023-11-15T15:37:40+01:00</time>
      </trkpt>
      <trkpt lat="43.72999" lon="5.94668">
        <ele>366.8</ele>
        <time>2023-11-15T15:37:49+01:00</time>
      </trkpt>
      <trkpt lat="43.72991" lon="5.9466">
        <ele>366.9</ele>
        <time>2023-11-15T15:37:57+01:00</time>
      </trkpt>
      <trkpt lat="43.72981" lon="5.94656">
        <ele>367.7</ele>
        <time>2023-11-15T15:38:06+01:00</time>
      </trkpt>
      <trkpt lat="43.72975" lon="5.94645">
        <ele>366.3</ele>
        <time>2023-11-15T15:38:14+01:00</time>
      </trkpt>
      <trkpt lat="43.72976" lon="5.94632">
        <ele>364.7</ele>
        <time>2023-11-15T15:38:21+01:00</time>
      </trkpt>
      <trkpt lat="43.72977" lon="5.94619">
        <ele>365</ele>
        <time>2023-11-15T15:38:33+01:00</time>
      </trkpt>
      <trkpt lat="43.7298" lon="5.94606">
        <ele>365.7</ele>
        <time>2023-11-15T15:38:41+01:00</time>
      </trkpt>
      <trkpt lat="43.72988" lon="5.94599">
        <ele>366.7</ele>
        <time>2023-11-15T15:38:50+01:00</time>
      </trkpt>
      <trkpt lat="43.72998" lon="5.946">
        <ele>367.1</ele>
        <time>2023-11-15T15:38:58+01:00</time>
      </trkpt>
      <trkpt lat="43.73007" lon="5.94605">
        <ele>367</ele>
        <time>2023-11-15T15:39:06+01:00</time>
      </trkpt>
      <trkpt lat="43.73016" lon="5.94607">
        <ele>367</ele>
        <time>2023-11-15T15:39:13+01:00</time>
      </trkpt>
      <trkpt lat="43.73025" lon="5.94608">
        <ele>367.3</ele>
        <time>2023-11-15T15:39:23+01:00</time>
      </trkpt>
      <trkpt lat="43.73035" lon="5.94605">
        <ele>367.3</ele>
        <time>2023-11-15T15:39:32+01:00</time>
      </trkpt>
      <trkpt lat="43.73031" lon="5.9462">
        <ele>364.3</ele>
        <time>2023-11-15T15:39:52+01:00</time>
      </trkpt>
      <trkpt lat="43.73039" lon="5.94612">
        <ele>366</ele>
        <time>2023-11-15T15:42:38+01:00</time>
      </trkpt>
      <trkpt lat="43.73048" lon="5.94607">
        <ele>366.1</ele>
        <time>2023-11-15T15:42:44+01:00</time>
      </trkpt>
      <trkpt lat="43.73056" lon="5.946">
        <ele>366.6</ele>
        <time>2023-11-15T15:42:54+01:00</time>
      </trkpt>
      <trkpt lat="43.73065" lon="5.94601">
        <ele>366</ele>
        <time>2023-11-15T15:43:03+01:00</time>
      </trkpt>
      <trkpt lat="43.73075" lon="5.94599">
        <ele>365.9</ele>
        <time>2023-11-15T15:43:12+01:00</time>
      </trkpt>
      <trkpt lat="43.73085" lon="5.94599">
        <ele>365.7</ele>
        <time>2023-11-15T15:43:21+01:00</time>
      </trkpt>
      <trkpt lat="43.73094" lon="5.94601">
        <ele>365.2</ele>
        <time>2023-11-15T15:43:29+01:00</time>
      </trkpt>
      <trkpt lat="43.73103" lon="5.94604">
        <ele>364.7</ele>
        <time>2023-11-15T15:43:38+01:00</time>
      </trkpt>
      <trkpt lat="43.73114" lon="5.94604">
        <ele>364.8</ele>
        <time>2023-11-15T15:43:48+01:00</time>
      </trkpt>
      <trkpt lat="43.73123" lon="5.94605">
        <ele>364.7</ele>
        <time>2023-11-15T15:43:58+01:00</time>
      </trkpt>
      <trkpt lat="43.73133" lon="5.94602">
        <ele>365.9</ele>
        <time>2023-11-15T15:44:05+01:00</time>
      </trkpt>
      <trkpt lat="43.73142" lon="5.94603">
        <ele>365.8</ele>
        <time>2023-11-15T15:44:14+01:00</time>
      </trkpt>
      <trkpt lat="43.73152" lon="5.94607">
        <ele>365</ele>
        <time>2023-11-15T15:44:24+01:00</time>
      </trkpt>
      <trkpt lat="43.73162" lon="5.94607">
        <ele>365.2</ele>
        <time>2023-11-15T15:44:34+01:00</time>
      </trkpt>
      <trkpt lat="43.73173" lon="5.94605">
        <ele>365.6</ele>
        <time>2023-11-15T15:44:41+01:00</time>
      </trkpt>
      <trkpt lat="43.73182" lon="5.94605">
        <ele>365.1</ele>
        <time>2023-11-15T15:44:52+01:00</time>
      </trkpt>
      <trkpt lat="43.73192" lon="5.94604">
        <ele>364.9</ele>
        <time>2023-11-15T15:45:02+01:00</time>
      </trkpt>
      <trkpt lat="43.73201" lon="5.94598">
        <ele>365</ele>
        <time>2023-11-15T15:45:10+01:00</time>
      </trkpt>
      <trkpt lat="43.73213" lon="5.94596">
        <ele>363</ele>
        <time>2023-11-15T15:45:45+01:00</time>
      </trkpt>
      <trkpt lat="43.7322" lon="5.94588">
        <ele>363.5</ele>
        <time>2023-11-15T15:46:09+01:00</time>
      </trkpt>
      <trkpt lat="43.73224" lon="5.94576">
        <ele>364.8</ele>
        <time>2023-11-15T15:46:17+01:00</time>
      </trkpt>
      <trkpt lat="43.73231" lon="5.94565">
        <ele>364.5</ele>
        <time>2023-11-15T15:46:28+01:00</time>
      </trkpt>
      <trkpt lat="43.73236" lon="5.94553">
        <ele>363.9</ele>
        <time>2023-11-15T15:46:36+01:00</time>
      </trkpt>
      <trkpt lat="43.73237" lon="5.9454">
        <ele>364.9</ele>
        <time>2023-11-15T15:46:48+01:00</time>
      </trkpt>
      <trkpt lat="43.73242" lon="5.94527">
        <ele>363.9</ele>
        <time>2023-11-15T15:46:56+01:00</time>
      </trkpt>
      <trkpt lat="43.73243" lon="5.94514">
        <ele>363.7</ele>
        <time>2023-11-15T15:47:10+01:00</time>
      </trkpt>
      <trkpt lat="43.73244" lon="5.945">
        <ele>363.3</ele>
        <time>2023-11-15T15:47:20+01:00</time>
      </trkpt>
      <trkpt lat="43.73242" lon="5.94487">
        <ele>363.8</ele>
        <time>2023-11-15T15:47:30+01:00</time>
      </trkpt>
      <trkpt lat="43.7324" lon="5.94475">
        <ele>364.3</ele>
        <time>2023-11-15T15:47:39+01:00</time>
      </trkpt>
      <trkpt lat="43.73241" lon="5.94462">
        <ele>363.2</ele>
        <time>2023-11-15T15:47:49+01:00</time>
      </trkpt>
      <trkpt lat="43.7324" lon="5.94449">
        <ele>362.6</ele>
        <time>2023-11-15T15:47:57+01:00</time>
      </trkpt>
      <trkpt lat="43.73236" lon="5.94438">
        <ele>363.6</ele>
        <time>2023-11-15T15:48:06+01:00</time>
      </trkpt>
      <trkpt lat="43.73229" lon="5.94429">
        <ele>365.4</ele>
        <time>2023-11-15T15:48:19+01:00</time>
      </trkpt>
      <trkpt lat="43.73222" lon="5.94419">
        <ele>366.3</ele>
        <time>2023-11-15T15:48:37+01:00</time>
      </trkpt>
      <trkpt lat="43.73216" lon="5.94408">
        <ele>366.6</ele>
        <time>2023-11-15T15:48:45+01:00</time>
      </trkpt>
      <trkpt lat="43.73207" lon="5.94401">
        <ele>367.5</ele>
        <time>2023-11-15T15:48:53+01:00</time>
      </trkpt>
      <trkpt lat="43.73203" lon="5.94389">
        <ele>366</ele>
        <time>2023-11-15T15:49:01+01:00</time>
      </trkpt>
      <trkpt lat="43.73203" lon="5.94376">
        <ele>366.4</ele>
        <time>2023-11-15T15:49:09+01:00</time>
      </trkpt>
      <trkpt lat="43.73206" lon="5.94363">
        <ele>366.3</ele>
        <time>2023-11-15T15:49:16+01:00</time>
      </trkpt>
      <trkpt lat="43.73214" lon="5.94355">
        <ele>365.9</ele>
        <time>2023-11-15T15:49:23+01:00</time>
      </trkpt>
      <trkpt lat="43.73221" lon="5.94346">
        <ele>365.5</ele>
        <time>2023-11-15T15:49:32+01:00</time>
      </trkpt>
      <trkpt lat="43.73228" lon="5.94337">
        <ele>364.6</ele>
        <time>2023-11-15T15:49:39+01:00</time>
      </trkpt>
      <trkpt lat="43.73234" lon="5.94326">
        <ele>364.1</ele>
        <time>2023-11-15T15:49:46+01:00</time>
      </trkpt>
      <trkpt lat="43.73235" lon="5.94314">
        <ele>364.9</ele>
        <time>2023-11-15T15:49:58+01:00</time>
      </trkpt>
      <trkpt lat="43.73237" lon="5.943">
        <ele>365.6</ele>
        <time>2023-11-15T15:50:07+01:00</time>
      </trkpt>
      <trkpt lat="43.73236" lon="5.94287">
        <ele>366.6</ele>
        <time>2023-11-15T15:50:15+01:00</time>
      </trkpt>
      <trkpt lat="43.73237" lon="5.94273">
        <ele>367.4</ele>
        <time>2023-11-15T15:50:25+01:00</time>
      </trkpt>
      <trkpt lat="43.73244" lon="5.94265">
        <ele>366.7</ele>
        <time>2023-11-15T15:50:31+01:00</time>
      </trkpt>
      <trkpt lat="43.73249" lon="5.94252">
        <ele>366.2</ele>
        <time>2023-11-15T15:50:38+01:00</time>
      </trkpt>
      <trkpt lat="43.73257" lon="5.94245">
        <ele>366</ele>
        <time>2023-11-15T15:50:47+01:00</time>
      </trkpt>
      <trkpt lat="43.73266" lon="5.94239">
        <ele>365.9</ele>
        <time>2023-11-15T15:50:54+01:00</time>
      </trkpt>
      <trkpt lat="43.73274" lon="5.94232">
        <ele>365.1</ele>
        <time>2023-11-15T15:51:01+01:00</time>
      </trkpt>
      <trkpt lat="43.7328" lon="5.94223">
        <ele>365.1</ele>
        <time>2023-11-15T15:51:09+01:00</time>
      </trkpt>
      <trkpt lat="43.73285" lon="5.94212">
        <ele>366.1</ele>
        <time>2023-11-15T15:51:19+01:00</time>
      </trkpt>
      <trkpt lat="43.73291" lon="5.94203">
        <ele>365.8</ele>
        <time>2023-11-15T15:51:28+01:00</time>
      </trkpt>
      <trkpt lat="43.73298" lon="5.94191">
        <ele>364.9</ele>
        <time>2023-11-15T15:51:38+01:00</time>
      </trkpt>
      <trkpt lat="43.73301" lon="5.94178">
        <ele>365.4</ele>
        <time>2023-11-15T15:51:46+01:00</time>
      </trkpt>
      <trkpt lat="43.73305" lon="5.94167">
        <ele>365</ele>
        <time>2023-11-15T15:51:57+01:00</time>
      </trkpt>
      <trkpt lat="43.73311" lon="5.94157">
        <ele>364.1</ele>
        <time>2023-11-15T15:52:23+01:00</time>
      </trkpt>
      <trkpt lat="43.73311" lon="5.94145">
        <ele>364.4</ele>
        <time>2023-11-15T15:52:36+01:00</time>
      </trkpt>
      <trkpt lat="43.73313" lon="5.94132">
        <ele>364.9</ele>
        <time>2023-11-15T15:52:44+01:00</time>
      </trkpt>
      <trkpt lat="43.73316" lon="5.94118">
        <ele>365.7</ele>
        <time>2023-11-15T15:52:54+01:00</time>
      </trkpt>
      <trkpt lat="43.73323" lon="5.94108">
        <ele>365</ele>
        <time>2023-11-15T15:53:00+01:00</time>
      </trkpt>
      <trkpt lat="43.73325" lon="5.94096">
        <ele>365.8</ele>
        <time>2023-11-15T15:53:09+01:00</time>
      </trkpt>
      <trkpt lat="43.7333" lon="5.94084">
        <ele>365.2</ele>
        <time>2023-11-15T15:53:25+01:00</time>
      </trkpt>
      <trkpt lat="43.73329" lon="5.9407">
        <ele>366.1</ele>
        <time>2023-11-15T15:53:33+01:00</time>
      </trkpt>
      <trkpt lat="43.73327" lon="5.94055">
        <ele>367.1</ele>
        <time>2023-11-15T15:53:42+01:00</time>
      </trkpt>
      <trkpt lat="43.73326" lon="5.94041">
        <ele>366.7</ele>
        <time>2023-11-15T15:53:54+01:00</time>
      </trkpt>
      <trkpt lat="43.73324" lon="5.94028">
        <ele>366.3</ele>
        <time>2023-11-15T15:54:05+01:00</time>
      </trkpt>
      <trkpt lat="43.7332" lon="5.94016">
        <ele>365.6</ele>
        <time>2023-11-15T15:54:14+01:00</time>
      </trkpt>
      <trkpt lat="43.73317" lon="5.94003">
        <ele>364.6</ele>
        <time>2023-11-15T15:54:22+01:00</time>
      </trkpt>
      <trkpt lat="43.7331" lon="5.93994">
        <ele>365.4</ele>
        <time>2023-11-15T15:54:31+01:00</time>
      </trkpt>
      <trkpt lat="43.73309" lon="5.93981">
        <ele>364.6</ele>
        <time>2023-11-15T15:54:40+01:00</time>
      </trkpt>
      <trkpt lat="43.73304" lon="5.9397">
        <ele>365.4</ele>
        <time>2023-11-15T15:54:48+01:00</time>
      </trkpt>
      <trkpt lat="43.73299" lon="5.93958">
        <ele>365.6</ele>
        <time>2023-11-15T15:54:57+01:00</time>
      </trkpt>
      <trkpt lat="43.73293" lon="5.93946">
        <ele>365.3</ele>
        <time>2023-11-15T15:55:06+01:00</time>
      </trkpt>
      <trkpt lat="43.73289" lon="5.93935">
        <ele>365.2</ele>
        <time>2023-11-15T15:55:14+01:00</time>
      </trkpt>
      <trkpt lat="43.73284" lon="5.93923">
        <ele>365.2</ele>
        <time>2023-11-15T15:55:23+01:00</time>
      </trkpt>
      <trkpt lat="43.73279" lon="5.93913">
        <ele>365.2</ele>
        <time>2023-11-15T15:55:31+01:00</time>
      </trkpt>
      <trkpt lat="43.73273" lon="5.93902">
        <ele>366.1</ele>
        <time>2023-11-15T15:55:38+01:00</time>
      </trkpt>
      <trkpt lat="43.73268" lon="5.93891">
        <ele>365.9</ele>
        <time>2023-11-15T15:55:49+01:00</time>
      </trkpt>
      <trkpt lat="43.73261" lon="5.93883">
        <ele>366.5</ele>
        <time>2023-11-15T15:55:57+01:00</time>
      </trkpt>
      <trkpt lat="43.73255" lon="5.93873">
        <ele>366.4</ele>
        <time>2023-11-15T15:56:04+01:00</time>
      </trkpt>
      <trkpt lat="43.73249" lon="5.93864">
        <ele>366.8</ele>
        <time>2023-11-15T15:56:11+01:00</time>
      </trkpt>
      <trkpt lat="43.73244" lon="5.93852">
        <ele>366.6</ele>
        <time>2023-11-15T15:56:20+01:00</time>
      </trkpt>
      <trkpt lat="43.7324" lon="5.9384">
        <ele>365.9</ele>
        <time>2023-11-15T15:56:29+01:00</time>
      </trkpt>
      <trkpt lat="43.73234" lon="5.93829">
        <ele>365.4</ele>
        <time>2023-11-15T15:56:37+01:00</time>
      </trkpt>
      <trkpt lat="43.7323" lon="5.93817">
        <ele>364.4</ele>
        <time>2023-11-15T15:56:45+01:00</time>
      </trkpt>
      <trkpt lat="43.73226" lon="5.93805">
        <ele>363.4</ele>
        <time>2023-11-15T15:56:51+01:00</time>
      </trkpt>
      <trkpt lat="43.73226" lon="5.93792">
        <ele>364</ele>
        <time>2023-11-15T15:57:07+01:00</time>
      </trkpt>
      <trkpt lat="43.73225" lon="5.93779">
        <ele>364.5</ele>
        <time>2023-11-15T15:57:13+01:00</time>
      </trkpt>
      <trkpt lat="43.73226" lon="5.93766">
        <ele>365.3</ele>
        <time>2023-11-15T15:57:23+01:00</time>
      </trkpt>
      <trkpt lat="43.73234" lon="5.93758">
        <ele>364.4</ele>
        <time>2023-11-15T15:57:35+01:00</time>
      </trkpt>
      <trkpt lat="43.73243" lon="5.93755">
        <ele>363</ele>
        <time>2023-11-15T15:58:10+01:00</time>
      </trkpt>
      <trkpt lat="43.73239" lon="5.93766">
        <ele>363.2</ele>
        <time>2023-11-15T15:58:28+01:00</time>
      </trkpt>
      <trkpt lat="43.73232" lon="5.93757">
        <ele>364.9</ele>
        <time>2023-11-15T15:59:18+01:00</time>
      </trkpt>
      <trkpt lat="43.73236" lon="5.9377">
        <ele>363.5</ele>
        <time>2023-11-15T15:59:26+01:00</time>
      </trkpt>
      <trkpt lat="43.73235" lon="5.93756">
        <ele>364.4</ele>
        <time>2023-11-15T16:01:45+01:00</time>
      </trkpt>
      <trkpt lat="43.73238" lon="5.93743">
        <ele>364.8</ele>
        <time>2023-11-15T16:01:54+01:00</time>
      </trkpt>
      <trkpt lat="43.73243" lon="5.93731">
        <ele>364.8</ele>
        <time>2023-11-15T16:02:00+01:00</time>
      </trkpt>
      <trkpt lat="43.73245" lon="5.93719">
        <ele>365.4</ele>
        <time>2023-11-15T16:02:10+01:00</time>
      </trkpt>
      <trkpt lat="43.73253" lon="5.93714">
        <ele>365.9</ele>
        <time>2023-11-15T16:02:22+01:00</time>
      </trkpt>
      <trkpt lat="43.73262" lon="5.93716">
        <ele>368.3</ele>
        <time>2023-11-15T16:02:32+01:00</time>
      </trkpt>
      <trkpt lat="43.73271" lon="5.93724">
        <ele>369.8</ele>
        <time>2023-11-15T16:02:40+01:00</time>
      </trkpt>
      <trkpt lat="43.73278" lon="5.93731">
        <ele>370.4</ele>
        <time>2023-11-15T16:02:47+01:00</time>
      </trkpt>
      <trkpt lat="43.73279" lon="5.93744">
        <ele>368.9</ele>
        <time>2023-11-15T16:02:56+01:00</time>
      </trkpt>
      <trkpt lat="43.73288" lon="5.93751">
        <ele>371.1</ele>
        <time>2023-11-15T16:03:04+01:00</time>
      </trkpt>
      <trkpt lat="43.73294" lon="5.93762">
        <ele>370.4</ele>
        <time>2023-11-15T16:03:13+01:00</time>
      </trkpt>
      <trkpt lat="43.73302" lon="5.93767">
        <ele>372.2</ele>
        <time>2023-11-15T16:03:22+01:00</time>
      </trkpt>
      <trkpt lat="43.73311" lon="5.93773">
        <ele>373.8</ele>
        <time>2023-11-15T16:03:32+01:00</time>
      </trkpt>
      <trkpt lat="43.73316" lon="5.93784">
        <ele>371.1</ele>
        <time>2023-11-15T16:03:44+01:00</time>
      </trkpt>
      <trkpt lat="43.73326" lon="5.93786">
        <ele>372.8</ele>
        <time>2023-11-15T16:03:54+01:00</time>
      </trkpt>
      <trkpt lat="43.73335" lon="5.93788">
        <ele>374.6</ele>
        <time>2023-11-15T16:04:03+01:00</time>
      </trkpt>
      <trkpt lat="43.73345" lon="5.93786">
        <ele>377</ele>
        <time>2023-11-15T16:04:11+01:00</time>
      </trkpt>
      <trkpt lat="43.73355" lon="5.93789">
        <ele>377.8</ele>
        <time>2023-11-15T16:04:22+01:00</time>
      </trkpt>
      <trkpt lat="43.73364" lon="5.93792">
        <ele>378.5</ele>
        <time>2023-11-15T16:04:32+01:00</time>
      </trkpt>
      <trkpt lat="43.73374" lon="5.93792">
        <ele>380.3</ele>
        <time>2023-11-15T16:04:42+01:00</time>
      </trkpt>
      <trkpt lat="43.73383" lon="5.93791">
        <ele>382.5</ele>
        <time>2023-11-15T16:04:50+01:00</time>
      </trkpt>
      <trkpt lat="43.73392" lon="5.93793">
        <ele>383.5</ele>
        <time>2023-11-15T16:04:58+01:00</time>
      </trkpt>
      <trkpt lat="43.73401" lon="5.93798">
        <ele>383</ele>
        <time>2023-11-15T16:05:08+01:00</time>
      </trkpt>
      <trkpt lat="43.73412" lon="5.93798">
        <ele>384.8</ele>
        <time>2023-11-15T16:05:20+01:00</time>
      </trkpt>
      <trkpt lat="43.73421" lon="5.93801">
        <ele>385.5</ele>
        <time>2023-11-15T16:05:31+01:00</time>
      </trkpt>
      <trkpt lat="43.7343" lon="5.93798">
        <ele>390.2</ele>
        <time>2023-11-15T16:05:39+01:00</time>
      </trkpt>
      <trkpt lat="43.73439" lon="5.93804">
        <ele>389.4</ele>
        <time>2023-11-15T16:05:48+01:00</time>
      </trkpt>
      <trkpt lat="43.73447" lon="5.93808">
        <ele>389.8</ele>
        <time>2023-11-15T16:05:58+01:00</time>
      </trkpt>
      <trkpt lat="43.73456" lon="5.93813">
        <ele>390.2</ele>
        <time>2023-11-15T16:06:07+01:00</time>
      </trkpt>
      <trkpt lat="43.73465" lon="5.93816">
        <ele>391.5</ele>
        <time>2023-11-15T16:06:20+01:00</time>
      </trkpt>
      <trkpt lat="43.73475" lon="5.93814">
        <ele>393.6</ele>
        <time>2023-11-15T16:06:32+01:00</time>
      </trkpt>
      <trkpt lat="43.73484" lon="5.9381">
        <ele>394.5</ele>
        <time>2023-11-15T16:06:43+01:00</time>
      </trkpt>
    </trkseg>
  </trk>
</gpx>